<?xml version="1.0" encoding="UTF-8" standalone="no" ?>
<gpx xmlns="http://www.topografix.com/GPX/1/1" xmlns:xsi="http://www.w3.org/2001/XMLSchema-instance" xsi:schemaLocation="http://www.topografix.com/GPX/1/1 http://www.topografix.com/GPX/1/1/gpx.xsd" version="1.1" creator="VisuGPX - https://www.visugpx.com">
  <metadata>
    <name>Chemin de la mine -Baou de st jeannet</name>
    <desc><![CDATA[Départ du sommet du col de Vence(navette obligatoire)
Super single en sous-bois, suivi d\'une grosse montée au soleil, puis la piste \"du gaz\" et la descente de la voie romaine sur saint jeannet]]></desc>
  </metadata>
  <trk>
    <name><![CDATA[Chemin de la mine]]></name>
    <trkseg>
      <trkpt lat="43.76893" lon="7.07003">
        <ele>930.212890625</ele>
        <time>2012-06-16T09:12:52Z</time>
      </trkpt>
      <trkpt lat="43.7691" lon="7.07014">
        <ele>930.212890625</ele>
        <time>2012-06-16T09:12:56Z</time>
      </trkpt>
      <trkpt lat="43.76953" lon="7.07049">
        <ele>926.84838867188</ele>
        <time>2012-06-16T09:13:06Z</time>
      </trkpt>
      <trkpt lat="43.76988" lon="7.07084">
        <ele>924.92578125</ele>
        <time>2012-06-16T09:13:14Z</time>
      </trkpt>
      <trkpt lat="43.7701" lon="7.07129">
        <ele>921.56079101562</ele>
        <time>2012-06-16T09:13:21Z</time>
      </trkpt>
      <trkpt lat="43.77017" lon="7.07139">
        <ele>921.08032226562</ele>
        <time>2012-06-16T09:13:23Z</time>
      </trkpt>
      <trkpt lat="43.77069" lon="7.07188">
        <ele>917.71557617188</ele>
        <time>2012-06-16T09:13:34Z</time>
      </trkpt>
      <trkpt lat="43.77105" lon="7.0721">
        <ele>916.27368164062</ele>
        <time>2012-06-16T09:13:41Z</time>
      </trkpt>
      <trkpt lat="43.77123" lon="7.07226">
        <ele>915.3125</ele>
        <time>2012-06-16T09:13:45Z</time>
      </trkpt>
      <trkpt lat="43.77132" lon="7.07235">
        <ele>913.87036132812</ele>
        <time>2012-06-16T09:13:47Z</time>
      </trkpt>
      <trkpt lat="43.77144" lon="7.07246">
        <ele>912.9091796875</ele>
        <time>2012-06-16T09:13:50Z</time>
      </trkpt>
      <trkpt lat="43.77175" lon="7.07275">
        <ele>910.505859375</ele>
        <time>2012-06-16T09:13:57Z</time>
      </trkpt>
      <trkpt lat="43.7721" lon="7.07313">
        <ele>906.66040039062</ele>
        <time>2012-06-16T09:14:05Z</time>
      </trkpt>
      <trkpt lat="43.77244" lon="7.07328">
        <ele>902.81518554688</ele>
        <time>2012-06-16T09:14:12Z</time>
      </trkpt>
      <trkpt lat="43.77271" lon="7.07339">
        <ele>901.37329101562</ele>
        <time>2012-06-16T09:14:16Z</time>
      </trkpt>
      <trkpt lat="43.77283" lon="7.07352">
        <ele>898.96997070312</ele>
        <time>2012-06-16T09:14:19Z</time>
      </trkpt>
      <trkpt lat="43.77298" lon="7.07371">
        <ele>897.04736328125</ele>
        <time>2012-06-16T09:14:23Z</time>
      </trkpt>
      <trkpt lat="43.77305" lon="7.07389">
        <ele>895.60546875</ele>
        <time>2012-06-16T09:14:26Z</time>
      </trkpt>
      <trkpt lat="43.7732" lon="7.07429">
        <ele>894.16357421875</ele>
        <time>2012-06-16T09:14:32Z</time>
      </trkpt>
      <trkpt lat="43.77345" lon="7.07468">
        <ele>891.279296875</ele>
        <time>2012-06-16T09:14:39Z</time>
      </trkpt>
      <trkpt lat="43.77347" lon="7.0747">
        <ele>891.279296875</ele>
        <time>2012-06-16T09:14:40Z</time>
      </trkpt>
      <trkpt lat="43.77365" lon="7.07483">
        <ele>888.87622070312</ele>
        <time>2012-06-16T09:14:45Z</time>
      </trkpt>
      <trkpt lat="43.77369" lon="7.07486">
        <ele>888.3955078125</ele>
        <time>2012-06-16T09:14:46Z</time>
      </trkpt>
      <trkpt lat="43.77387" lon="7.07502">
        <ele>885.03100585938</ele>
        <time>2012-06-16T09:14:51Z</time>
      </trkpt>
      <trkpt lat="43.77403" lon="7.07513">
        <ele>883.5888671875</ele>
        <time>2012-06-16T09:14:55Z</time>
      </trkpt>
      <trkpt lat="43.7743" lon="7.07529">
        <ele>880.22436523438</ele>
        <time>2012-06-16T09:15:02Z</time>
      </trkpt>
      <trkpt lat="43.77466" lon="7.07561">
        <ele>877.34057617188</ele>
        <time>2012-06-16T09:15:15Z</time>
      </trkpt>
      <trkpt lat="43.77467" lon="7.07563">
        <ele>876.37915039062</ele>
        <time>2012-06-16T09:15:28Z</time>
      </trkpt>
      <trkpt lat="43.77467" lon="7.07563">
        <ele>875.89819335938</ele>
        <time>2012-06-16T09:15:39Z</time>
      </trkpt>
      <trkpt lat="43.77471" lon="7.07557">
        <ele>874.93701171875</ele>
        <time>2012-06-16T09:15:43Z</time>
      </trkpt>
      <trkpt lat="43.77452" lon="7.07527">
        <ele>872.05297851562</ele>
        <time>2012-06-16T09:15:53Z</time>
      </trkpt>
      <trkpt lat="43.77441" lon="7.07514">
        <ele>870.13037109375</ele>
        <time>2012-06-16T09:15:59Z</time>
      </trkpt>
      <trkpt lat="43.77442" lon="7.07515">
        <ele>867.72705078125</ele>
        <time>2012-06-16T09:16:05Z</time>
      </trkpt>
      <trkpt lat="43.77476" lon="7.0755">
        <ele>865.32397460938</ele>
        <time>2012-06-16T09:16:19Z</time>
      </trkpt>
      <trkpt lat="43.77481" lon="7.0756">
        <ele>862.43994140625</ele>
        <time>2012-06-16T09:16:24Z</time>
      </trkpt>
      <trkpt lat="43.77482" lon="7.07564">
        <ele>861.95947265625</ele>
        <time>2012-06-16T09:16:29Z</time>
      </trkpt>
      <trkpt lat="43.77502" lon="7.07597">
        <ele>860.51733398438</ele>
        <time>2012-06-16T09:16:39Z</time>
      </trkpt>
      <trkpt lat="43.77509" lon="7.07607">
        <ele>860.51733398438</ele>
        <time>2012-06-16T09:16:42Z</time>
      </trkpt>
      <trkpt lat="43.77517" lon="7.07595">
        <ele>858.11401367188</ele>
        <time>2012-06-16T09:16:47Z</time>
      </trkpt>
      <trkpt lat="43.77522" lon="7.07599">
        <ele>855.71069335938</ele>
        <time>2012-06-16T09:16:52Z</time>
      </trkpt>
      <trkpt lat="43.77523" lon="7.07605">
        <ele>853.7880859375</ele>
        <time>2012-06-16T09:16:54Z</time>
      </trkpt>
      <trkpt lat="43.77524" lon="7.07617">
        <ele>851.86547851562</ele>
        <time>2012-06-16T09:17:06Z</time>
      </trkpt>
      <trkpt lat="43.77527" lon="7.07616">
        <ele>850.42358398438</ele>
        <time>2012-06-16T09:17:15Z</time>
      </trkpt>
      <trkpt lat="43.77531" lon="7.07618">
        <ele>848.50073242188</ele>
        <time>2012-06-16T09:17:23Z</time>
      </trkpt>
      <trkpt lat="43.7753" lon="7.07625">
        <ele>846.09765625</ele>
        <time>2012-06-16T09:17:29Z</time>
      </trkpt>
      <trkpt lat="43.77531" lon="7.07628">
        <ele>845.61694335938</ele>
        <time>2012-06-16T09:17:35Z</time>
      </trkpt>
      <trkpt lat="43.77537" lon="7.07622">
        <ele>844.65551757812</ele>
        <time>2012-06-16T09:17:39Z</time>
      </trkpt>
      <trkpt lat="43.77538" lon="7.07638">
        <ele>842.73291015625</ele>
        <time>2012-06-16T09:17:48Z</time>
      </trkpt>
      <trkpt lat="43.77537" lon="7.07649">
        <ele>841.771484375</ele>
        <time>2012-06-16T09:17:51Z</time>
      </trkpt>
      <trkpt lat="43.77548" lon="7.07646">
        <ele>837.44555664062</ele>
        <time>2012-06-16T09:17:58Z</time>
      </trkpt>
      <trkpt lat="43.77563" lon="7.07651">
        <ele>836.484375</ele>
        <time>2012-06-16T09:18:04Z</time>
      </trkpt>
      <trkpt lat="43.77572" lon="7.07647">
        <ele>834.56176757812</ele>
        <time>2012-06-16T09:18:09Z</time>
      </trkpt>
      <trkpt lat="43.77574" lon="7.07649">
        <ele>834.0810546875</ele>
        <time>2012-06-16T09:18:10Z</time>
      </trkpt>
      <trkpt lat="43.77581" lon="7.07654">
        <ele>832.15844726562</ele>
        <time>2012-06-16T09:18:12Z</time>
      </trkpt>
      <trkpt lat="43.77599" lon="7.0767">
        <ele>831.197265625</ele>
        <time>2012-06-16T09:18:17Z</time>
      </trkpt>
      <trkpt lat="43.77606" lon="7.07672">
        <ele>829.2744140625</ele>
        <time>2012-06-16T09:18:21Z</time>
      </trkpt>
      <trkpt lat="43.77619" lon="7.07655">
        <ele>825.42895507812</ele>
        <time>2012-06-16T09:18:27Z</time>
      </trkpt>
      <trkpt lat="43.7762" lon="7.07652">
        <ele>825.42895507812</ele>
        <time>2012-06-16T09:18:28Z</time>
      </trkpt>
      <trkpt lat="43.77621" lon="7.0765">
        <ele>825.42895507812</ele>
        <time>2012-06-16T09:18:29Z</time>
      </trkpt>
      <trkpt lat="43.77631" lon="7.07657">
        <ele>822.064453125</ele>
        <time>2012-06-16T09:18:35Z</time>
      </trkpt>
      <trkpt lat="43.77632" lon="7.07659">
        <ele>821.58374023438</ele>
        <time>2012-06-16T09:18:36Z</time>
      </trkpt>
      <trkpt lat="43.77632" lon="7.07672">
        <ele>819.1806640625</ele>
        <time>2012-06-16T09:18:40Z</time>
      </trkpt>
      <trkpt lat="43.77629" lon="7.07686">
        <ele>818.21923828125</ele>
        <time>2012-06-16T09:18:45Z</time>
      </trkpt>
      <trkpt lat="43.77628" lon="7.07696">
        <ele>815.81616210938</ele>
        <time>2012-06-16T09:18:48Z</time>
      </trkpt>
      <trkpt lat="43.77629" lon="7.077">
        <ele>815.33544921875</ele>
        <time>2012-06-16T09:18:49Z</time>
      </trkpt>
      <trkpt lat="43.77642" lon="7.07712">
        <ele>812.45141601562</ele>
        <time>2012-06-16T09:18:55Z</time>
      </trkpt>
      <trkpt lat="43.77641" lon="7.07726">
        <ele>809.5673828125</ele>
        <time>2012-06-16T09:18:59Z</time>
      </trkpt>
      <trkpt lat="43.7764" lon="7.07728">
        <ele>808.60595703125</ele>
        <time>2012-06-16T09:19:00Z</time>
      </trkpt>
      <trkpt lat="43.77636" lon="7.07732">
        <ele>808.60595703125</ele>
        <time>2012-06-16T09:19:02Z</time>
      </trkpt>
      <trkpt lat="43.77639" lon="7.07738">
        <ele>807.1640625</ele>
        <time>2012-06-16T09:19:06Z</time>
      </trkpt>
      <trkpt lat="43.77644" lon="7.07737">
        <ele>805.24145507812</ele>
        <time>2012-06-16T09:19:09Z</time>
      </trkpt>
      <trkpt lat="43.77645" lon="7.07737">
        <ele>805.24145507812</ele>
        <time>2012-06-16T09:19:10Z</time>
      </trkpt>
      <trkpt lat="43.77652" lon="7.07742">
        <ele>802.83813476562</ele>
        <time>2012-06-16T09:19:15Z</time>
      </trkpt>
      <trkpt lat="43.77656" lon="7.07739">
        <ele>801.39624023438</ele>
        <time>2012-06-16T09:19:18Z</time>
      </trkpt>
      <trkpt lat="43.7766" lon="7.07735">
        <ele>799.4736328125</ele>
        <time>2012-06-16T09:19:21Z</time>
      </trkpt>
      <trkpt lat="43.77664" lon="7.07733">
        <ele>798.51220703125</ele>
        <time>2012-06-16T09:19:24Z</time>
      </trkpt>
      <trkpt lat="43.77667" lon="7.07733">
        <ele>796.58984375</ele>
        <time>2012-06-16T09:19:26Z</time>
      </trkpt>
      <trkpt lat="43.77675" lon="7.07733">
        <ele>793.22485351562</ele>
        <time>2012-06-16T09:19:31Z</time>
      </trkpt>
      <trkpt lat="43.77684" lon="7.07729">
        <ele>791.30224609375</ele>
        <time>2012-06-16T09:19:36Z</time>
      </trkpt>
      <trkpt lat="43.77688" lon="7.07719">
        <ele>788.89916992188</ele>
        <time>2012-06-16T09:19:40Z</time>
      </trkpt>
      <trkpt lat="43.77691" lon="7.07714">
        <ele>788.41845703125</ele>
        <time>2012-06-16T09:19:42Z</time>
      </trkpt>
      <trkpt lat="43.77703" lon="7.07712">
        <ele>785.05395507812</ele>
        <time>2012-06-16T09:19:48Z</time>
      </trkpt>
      <trkpt lat="43.77717" lon="7.07721">
        <ele>781.68920898438</ele>
        <time>2012-06-16T09:19:54Z</time>
      </trkpt>
      <trkpt lat="43.77721" lon="7.07721">
        <ele>781.68920898438</ele>
        <time>2012-06-16T09:19:56Z</time>
      </trkpt>
      <trkpt lat="43.77728" lon="7.0773">
        <ele>778.80517578125</ele>
        <time>2012-06-16T09:20:01Z</time>
      </trkpt>
      <trkpt lat="43.77734" lon="7.07736">
        <ele>775.92114257812</ele>
        <time>2012-06-16T09:20:05Z</time>
      </trkpt>
      <trkpt lat="43.77737" lon="7.07741">
        <ele>774.9599609375</ele>
        <time>2012-06-16T09:20:09Z</time>
      </trkpt>
      <trkpt lat="43.77741" lon="7.07732">
        <ele>773.51806640625</ele>
        <time>2012-06-16T09:20:13Z</time>
      </trkpt>
      <trkpt lat="43.77744" lon="7.07723">
        <ele>772.556640625</ele>
        <time>2012-06-16T09:20:16Z</time>
      </trkpt>
      <trkpt lat="43.77746" lon="7.0772">
        <ele>771.59521484375</ele>
        <time>2012-06-16T09:20:18Z</time>
      </trkpt>
      <trkpt lat="43.77758" lon="7.07724">
        <ele>767.75</ele>
        <time>2012-06-16T09:20:24Z</time>
      </trkpt>
      <trkpt lat="43.77762" lon="7.07725">
        <ele>766.78881835938</ele>
        <time>2012-06-16T09:20:27Z</time>
      </trkpt>
      <trkpt lat="43.77767" lon="7.07738">
        <ele>765.82763671875</ele>
        <time>2012-06-16T09:20:32Z</time>
      </trkpt>
      <trkpt lat="43.77769" lon="7.07744">
        <ele>764.8662109375</ele>
        <time>2012-06-16T09:20:34Z</time>
      </trkpt>
      <trkpt lat="43.77772" lon="7.07751">
        <ele>762.943359375</ele>
        <time>2012-06-16T09:20:37Z</time>
      </trkpt>
      <trkpt lat="43.77777" lon="7.07757">
        <ele>760.5400390625</ele>
        <time>2012-06-16T09:20:40Z</time>
      </trkpt>
      <trkpt lat="43.77781" lon="7.07767">
        <ele>758.13696289062</ele>
        <time>2012-06-16T09:20:45Z</time>
      </trkpt>
      <trkpt lat="43.77781" lon="7.07775">
        <ele>756.21411132812</ele>
        <time>2012-06-16T09:20:49Z</time>
      </trkpt>
      <trkpt lat="43.77781" lon="7.07777">
        <ele>755.73364257812</ele>
        <time>2012-06-16T09:20:50Z</time>
      </trkpt>
      <trkpt lat="43.77786" lon="7.07781">
        <ele>753.81103515625</ele>
        <time>2012-06-16T09:21:00Z</time>
      </trkpt>
      <trkpt lat="43.77786" lon="7.07785">
        <ele>752.36889648438</ele>
        <time>2012-06-16T09:21:02Z</time>
      </trkpt>
      <trkpt lat="43.77788" lon="7.07797">
        <ele>749.9658203125</ele>
        <time>2012-06-16T09:21:06Z</time>
      </trkpt>
      <trkpt lat="43.77789" lon="7.078">
        <ele>749.48510742188</ele>
        <time>2012-06-16T09:21:07Z</time>
      </trkpt>
      <trkpt lat="43.77798" lon="7.0783">
        <ele>746.12036132812</ele>
        <time>2012-06-16T09:21:18Z</time>
      </trkpt>
      <trkpt lat="43.77796" lon="7.07837">
        <ele>745.15893554688</ele>
        <time>2012-06-16T09:21:20Z</time>
      </trkpt>
      <trkpt lat="43.77795" lon="7.0785">
        <ele>743.71704101562</ele>
        <time>2012-06-16T09:21:23Z</time>
      </trkpt>
      <trkpt lat="43.77794" lon="7.07867">
        <ele>741.79443359375</ele>
        <time>2012-06-16T09:21:27Z</time>
      </trkpt>
      <trkpt lat="43.77799" lon="7.07886">
        <ele>738.42993164062</ele>
        <time>2012-06-16T09:21:32Z</time>
      </trkpt>
      <trkpt lat="43.77785" lon="7.07898">
        <ele>737.94921875</ele>
        <time>2012-06-16T09:21:33Z</time>
      </trkpt>
      <trkpt lat="43.77798" lon="7.0794">
        <ele>735.0654296875</ele>
        <time>2012-06-16T09:21:44Z</time>
      </trkpt>
      <trkpt lat="43.77804" lon="7.07955">
        <ele>732.18139648438</ele>
        <time>2012-06-16T09:21:48Z</time>
      </trkpt>
      <trkpt lat="43.77811" lon="7.07967">
        <ele>728.81665039062</ele>
        <time>2012-06-16T09:21:54Z</time>
      </trkpt>
      <trkpt lat="43.77813" lon="7.07972">
        <ele>727.85522460938</ele>
        <time>2012-06-16T09:21:56Z</time>
      </trkpt>
      <trkpt lat="43.77814" lon="7.07974">
        <ele>727.37475585938</ele>
        <time>2012-06-16T09:21:57Z</time>
      </trkpt>
      <trkpt lat="43.77818" lon="7.07986">
        <ele>724.01000976562</ele>
        <time>2012-06-16T09:22:03Z</time>
      </trkpt>
      <trkpt lat="43.7782" lon="7.0799">
        <ele>722.56811523438</ele>
        <time>2012-06-16T09:22:05Z</time>
      </trkpt>
      <trkpt lat="43.7784" lon="7.07976">
        <ele>721.12622070312</ele>
        <time>2012-06-16T09:22:08Z</time>
      </trkpt>
      <trkpt lat="43.77845" lon="7.07976">
        <ele>720.16479492188</ele>
        <time>2012-06-16T09:22:24Z</time>
      </trkpt>
      <trkpt lat="43.77849" lon="7.07976">
        <ele>719.20361328125</ele>
        <time>2012-06-16T09:22:52Z</time>
      </trkpt>
      <trkpt lat="43.77855" lon="7.07985">
        <ele>716.80029296875</ele>
        <time>2012-06-16T09:23:00Z</time>
      </trkpt>
      <trkpt lat="43.77857" lon="7.07996">
        <ele>714.87744140625</ele>
        <time>2012-06-16T09:23:10Z</time>
      </trkpt>
      <trkpt lat="43.77861" lon="7.08011">
        <ele>710.07080078125</ele>
        <time>2012-06-16T09:23:15Z</time>
      </trkpt>
      <trkpt lat="43.77862" lon="7.08014">
        <ele>710.07080078125</ele>
        <time>2012-06-16T09:23:16Z</time>
      </trkpt>
      <trkpt lat="43.77862" lon="7.08021">
        <ele>708.62890625</ele>
        <time>2012-06-16T09:23:18Z</time>
      </trkpt>
      <trkpt lat="43.77863" lon="7.08035">
        <ele>706.2255859375</ele>
        <time>2012-06-16T09:23:29Z</time>
      </trkpt>
      <trkpt lat="43.77864" lon="7.08041">
        <ele>704.78369140625</ele>
        <time>2012-06-16T09:23:31Z</time>
      </trkpt>
      <trkpt lat="43.77864" lon="7.08043">
        <ele>704.30322265625</ele>
        <time>2012-06-16T09:23:32Z</time>
      </trkpt>
      <trkpt lat="43.77864" lon="7.08046">
        <ele>703.341796875</ele>
        <time>2012-06-16T09:23:34Z</time>
      </trkpt>
      <trkpt lat="43.77863" lon="7.0805">
        <ele>702.38037109375</ele>
        <time>2012-06-16T09:23:36Z</time>
      </trkpt>
      <trkpt lat="43.77863" lon="7.08059">
        <ele>699.49633789062</ele>
        <time>2012-06-16T09:23:47Z</time>
      </trkpt>
      <trkpt lat="43.77866" lon="7.08058">
        <ele>698.53491210938</ele>
        <time>2012-06-16T09:23:51Z</time>
      </trkpt>
      <trkpt lat="43.7787" lon="7.0807">
        <ele>697.57373046875</ele>
        <time>2012-06-16T09:23:56Z</time>
      </trkpt>
      <trkpt lat="43.77876" lon="7.08079">
        <ele>695.65112304688</ele>
        <time>2012-06-16T09:24:01Z</time>
      </trkpt>
      <trkpt lat="43.77884" lon="7.08089">
        <ele>693.24780273438</ele>
        <time>2012-06-16T09:24:08Z</time>
      </trkpt>
      <trkpt lat="43.7789" lon="7.08103">
        <ele>689.88330078125</ele>
        <time>2012-06-16T09:24:14Z</time>
      </trkpt>
      <trkpt lat="43.77893" lon="7.08112">
        <ele>687.96069335938</ele>
        <time>2012-06-16T09:24:19Z</time>
      </trkpt>
      <trkpt lat="43.77893" lon="7.08126">
        <ele>686.51879882812</ele>
        <time>2012-06-16T09:24:31Z</time>
      </trkpt>
      <trkpt lat="43.77898" lon="7.08135">
        <ele>683.63452148438</ele>
        <time>2012-06-16T09:24:46Z</time>
      </trkpt>
      <trkpt lat="43.77898" lon="7.08135">
        <ele>682.67333984375</ele>
        <time>2012-06-16T09:24:48Z</time>
      </trkpt>
      <trkpt lat="43.779" lon="7.08134">
        <ele>681.2314453125</ele>
        <time>2012-06-16T09:24:52Z</time>
      </trkpt>
      <trkpt lat="43.77901" lon="7.08135">
        <ele>681.7119140625</ele>
        <time>2012-06-16T09:24:55Z</time>
      </trkpt>
      <trkpt lat="43.77906" lon="7.08142">
        <ele>679.78930664062</ele>
        <time>2012-06-16T09:24:59Z</time>
      </trkpt>
      <trkpt lat="43.77908" lon="7.08145">
        <ele>679.30859375</ele>
        <time>2012-06-16T09:25:14Z</time>
      </trkpt>
      <trkpt lat="43.77912" lon="7.0815">
        <ele>678.34741210938</ele>
        <time>2012-06-16T09:26:21Z</time>
      </trkpt>
      <trkpt lat="43.77914" lon="7.08162">
        <ele>677.86669921875</ele>
        <time>2012-06-16T09:26:26Z</time>
      </trkpt>
      <trkpt lat="43.77918" lon="7.08174">
        <ele>675.46337890625</ele>
        <time>2012-06-16T09:26:30Z</time>
      </trkpt>
      <trkpt lat="43.77918" lon="7.08181">
        <ele>674.50219726562</ele>
        <time>2012-06-16T09:26:40Z</time>
      </trkpt>
      <trkpt lat="43.77921" lon="7.08185">
        <ele>673.541015625</ele>
        <time>2012-06-16T09:26:59Z</time>
      </trkpt>
      <trkpt lat="43.77919" lon="7.08185">
        <ele>673.541015625</ele>
        <time>2012-06-16T09:27:20Z</time>
      </trkpt>
      <trkpt lat="43.77921" lon="7.08182">
        <ele>672.57958984375</ele>
        <time>2012-06-16T09:27:38Z</time>
      </trkpt>
      <trkpt lat="43.7792" lon="7.08183">
        <ele>673.06030273438</ele>
        <time>2012-06-16T09:27:55Z</time>
      </trkpt>
      <trkpt lat="43.7792" lon="7.08185">
        <ele>673.06030273438</ele>
        <time>2012-06-16T09:28:23Z</time>
      </trkpt>
      <trkpt lat="43.77923" lon="7.08183">
        <ele>672.09887695312</ele>
        <time>2012-06-16T09:28:41Z</time>
      </trkpt>
      <trkpt lat="43.77927" lon="7.08187">
        <ele>673.06030273438</ele>
        <time>2012-06-16T09:28:53Z</time>
      </trkpt>
      <trkpt lat="43.77927" lon="7.08187">
        <ele>673.541015625</ele>
        <time>2012-06-16T09:29:35Z</time>
      </trkpt>
      <trkpt lat="43.7793" lon="7.08194">
        <ele>673.541015625</ele>
        <time>2012-06-16T09:30:20Z</time>
      </trkpt>
      <trkpt lat="43.77932" lon="7.08197">
        <ele>673.541015625</ele>
        <time>2012-06-16T09:30:33Z</time>
      </trkpt>
      <trkpt lat="43.77932" lon="7.08197">
        <ele>673.541015625</ele>
        <time>2012-06-16T09:30:34Z</time>
      </trkpt>
      <trkpt lat="43.77938" lon="7.08213">
        <ele>674.021484375</ele>
        <time>2012-06-16T09:30:41Z</time>
      </trkpt>
      <trkpt lat="43.77933" lon="7.08234">
        <ele>672.57958984375</ele>
        <time>2012-06-16T09:30:51Z</time>
      </trkpt>
      <trkpt lat="43.77951" lon="7.08257">
        <ele>671.6181640625</ele>
        <time>2012-06-16T09:31:01Z</time>
      </trkpt>
      <trkpt lat="43.77957" lon="7.08262">
        <ele>671.1376953125</ele>
        <time>2012-06-16T09:31:04Z</time>
      </trkpt>
      <trkpt lat="43.77963" lon="7.08279">
        <ele>669.69580078125</ele>
        <time>2012-06-16T09:31:15Z</time>
      </trkpt>
      <trkpt lat="43.77969" lon="7.083">
        <ele>669.21508789062</ele>
        <time>2012-06-16T09:31:26Z</time>
      </trkpt>
      <trkpt lat="43.7797" lon="7.08308">
        <ele>668.25366210938</ele>
        <time>2012-06-16T09:31:36Z</time>
      </trkpt>
      <trkpt lat="43.7797" lon="7.08315">
        <ele>667.77270507812</ele>
        <time>2012-06-16T09:31:52Z</time>
      </trkpt>
      <trkpt lat="43.7797" lon="7.08325">
        <ele>667.77270507812</ele>
        <time>2012-06-16T09:32:12Z</time>
      </trkpt>
      <trkpt lat="43.77971" lon="7.08334">
        <ele>667.77270507812</ele>
        <time>2012-06-16T09:32:23Z</time>
      </trkpt>
      <trkpt lat="43.77975" lon="7.08343">
        <ele>669.69580078125</ele>
        <time>2012-06-16T09:32:35Z</time>
      </trkpt>
      <trkpt lat="43.77977" lon="7.0836">
        <ele>670.17626953125</ele>
        <time>2012-06-16T09:32:51Z</time>
      </trkpt>
      <trkpt lat="43.77979" lon="7.08363">
        <ele>670.17626953125</ele>
        <time>2012-06-16T09:32:59Z</time>
      </trkpt>
      <trkpt lat="43.77986" lon="7.08375">
        <ele>671.1376953125</ele>
        <time>2012-06-16T09:33:09Z</time>
      </trkpt>
      <trkpt lat="43.77988" lon="7.08392">
        <ele>668.25366210938</ele>
        <time>2012-06-16T09:33:16Z</time>
      </trkpt>
      <trkpt lat="43.77998" lon="7.08419">
        <ele>668.734375</ele>
        <time>2012-06-16T09:33:24Z</time>
      </trkpt>
      <trkpt lat="43.77996" lon="7.08448">
        <ele>668.25366210938</ele>
        <time>2012-06-16T09:33:31Z</time>
      </trkpt>
      <trkpt lat="43.77992" lon="7.08458">
        <ele>667.77270507812</ele>
        <time>2012-06-16T09:33:34Z</time>
      </trkpt>
      <trkpt lat="43.77993" lon="7.08489">
        <ele>666.33081054688</ele>
        <time>2012-06-16T09:33:43Z</time>
      </trkpt>
      <trkpt lat="43.77979" lon="7.08526">
        <ele>665.36962890625</ele>
        <time>2012-06-16T09:33:56Z</time>
      </trkpt>
      <trkpt lat="43.77982" lon="7.08569">
        <ele>665.36962890625</ele>
        <time>2012-06-16T09:34:07Z</time>
      </trkpt>
      <trkpt lat="43.77996" lon="7.08616">
        <ele>663.92749023438</ele>
        <time>2012-06-16T09:34:15Z</time>
      </trkpt>
      <trkpt lat="43.78027" lon="7.08638">
        <ele>662.00512695312</ele>
        <time>2012-06-16T09:34:21Z</time>
      </trkpt>
      <trkpt lat="43.78058" lon="7.08655">
        <ele>659.12109375</ele>
        <time>2012-06-16T09:34:29Z</time>
      </trkpt>
      <trkpt lat="43.78076" lon="7.08688">
        <ele>658.15991210938</ele>
        <time>2012-06-16T09:34:38Z</time>
      </trkpt>
      <trkpt lat="43.78079" lon="7.087">
        <ele>657.67919921875</ele>
        <time>2012-06-16T09:34:41Z</time>
      </trkpt>
      <trkpt lat="43.78077" lon="7.08724">
        <ele>655.75659179688</ele>
        <time>2012-06-16T09:34:47Z</time>
      </trkpt>
      <trkpt lat="43.78071" lon="7.08744">
        <ele>657.67919921875</ele>
        <time>2012-06-16T09:34:53Z</time>
      </trkpt>
      <trkpt lat="43.78066" lon="7.08758">
        <ele>658.15991210938</ele>
        <time>2012-06-16T09:34:59Z</time>
      </trkpt>
      <trkpt lat="43.78064" lon="7.0878">
        <ele>657.67919921875</ele>
        <time>2012-06-16T09:35:02Z</time>
      </trkpt>
      <trkpt lat="43.78095" lon="7.08811">
        <ele>655.27587890625</ele>
        <time>2012-06-16T09:35:08Z</time>
      </trkpt>
      <trkpt lat="43.78101" lon="7.0882">
        <ele>653.35327148438</ele>
        <time>2012-06-16T09:35:10Z</time>
      </trkpt>
      <trkpt lat="43.78126" lon="7.08806">
        <ele>650.94970703125</ele>
        <time>2012-06-16T09:35:16Z</time>
      </trkpt>
      <trkpt lat="43.78129" lon="7.08803">
        <ele>649.5078125</ele>
        <time>2012-06-16T09:35:21Z</time>
      </trkpt>
      <trkpt lat="43.78133" lon="7.08803">
        <ele>649.98852539062</ele>
        <time>2012-06-16T09:35:39Z</time>
      </trkpt>
      <trkpt lat="43.78134" lon="7.08804">
        <ele>650.46923828125</ele>
        <time>2012-06-16T09:35:41Z</time>
      </trkpt>
      <trkpt lat="43.78136" lon="7.08809">
        <ele>651.43041992188</ele>
        <time>2012-06-16T09:35:45Z</time>
      </trkpt>
      <trkpt lat="43.78136" lon="7.08811">
        <ele>651.43041992188</ele>
        <time>2012-06-16T09:35:46Z</time>
      </trkpt>
      <trkpt lat="43.78137" lon="7.08827">
        <ele>651.9111328125</ele>
        <time>2012-06-16T09:35:52Z</time>
      </trkpt>
      <trkpt lat="43.78143" lon="7.08829">
        <ele>654.31469726562</ele>
        <time>2012-06-16T09:35:56Z</time>
      </trkpt>
      <trkpt lat="43.78155" lon="7.08812">
        <ele>656.7177734375</ele>
        <time>2012-06-16T09:36:10Z</time>
      </trkpt>
      <trkpt lat="43.78157" lon="7.0882">
        <ele>658.64038085938</ele>
        <time>2012-06-16T09:36:20Z</time>
      </trkpt>
      <trkpt lat="43.78155" lon="7.0884">
        <ele>662.00512695312</ele>
        <time>2012-06-16T09:36:41Z</time>
      </trkpt>
      <trkpt lat="43.78155" lon="7.08847">
        <ele>662.96630859375</ele>
        <time>2012-06-16T09:36:48Z</time>
      </trkpt>
      <trkpt lat="43.78154" lon="7.08867">
        <ele>664.88891601562</ele>
        <time>2012-06-16T09:37:08Z</time>
      </trkpt>
      <trkpt lat="43.78155" lon="7.08881">
        <ele>667.77270507812</ele>
        <time>2012-06-16T09:37:21Z</time>
      </trkpt>
      <trkpt lat="43.78159" lon="7.08895">
        <ele>671.1376953125</ele>
        <time>2012-06-16T09:37:36Z</time>
      </trkpt>
      <trkpt lat="43.78163" lon="7.08899">
        <ele>671.1376953125</ele>
        <time>2012-06-16T09:37:58Z</time>
      </trkpt>
      <trkpt lat="43.78164" lon="7.08899">
        <ele>670.65698242188</ele>
        <time>2012-06-16T09:38:41Z</time>
      </trkpt>
      <trkpt lat="43.78164" lon="7.08901">
        <ele>669.69580078125</ele>
        <time>2012-06-16T09:38:43Z</time>
      </trkpt>
      <trkpt lat="43.78176" lon="7.08922">
        <ele>673.06030273438</ele>
        <time>2012-06-16T09:38:57Z</time>
      </trkpt>
      <trkpt lat="43.78188" lon="7.08954">
        <ele>676.4248046875</ele>
        <time>2012-06-16T09:39:16Z</time>
      </trkpt>
      <trkpt lat="43.78201" lon="7.08988">
        <ele>679.30859375</ele>
        <time>2012-06-16T09:39:36Z</time>
      </trkpt>
      <trkpt lat="43.78202" lon="7.0899">
        <ele>679.78930664062</ele>
        <time>2012-06-16T09:39:37Z</time>
      </trkpt>
      <trkpt lat="43.7822" lon="7.09029">
        <ele>682.67333984375</ele>
        <time>2012-06-16T09:40:00Z</time>
      </trkpt>
      <trkpt lat="43.78217" lon="7.09058">
        <ele>684.59619140625</ele>
        <time>2012-06-16T09:40:16Z</time>
      </trkpt>
      <trkpt lat="43.78202" lon="7.09096">
        <ele>685.07690429688</ele>
        <time>2012-06-16T09:40:37Z</time>
      </trkpt>
      <trkpt lat="43.78197" lon="7.09124">
        <ele>688.44140625</ele>
        <time>2012-06-16T09:40:51Z</time>
      </trkpt>
      <trkpt lat="43.78199" lon="7.09162">
        <ele>690.84448242188</ele>
        <time>2012-06-16T09:41:09Z</time>
      </trkpt>
      <trkpt lat="43.78195" lon="7.09219">
        <ele>693.24780273438</ele>
        <time>2012-06-16T09:41:34Z</time>
      </trkpt>
      <trkpt lat="43.78188" lon="7.09264">
        <ele>695.17041015625</ele>
        <time>2012-06-16T09:41:51Z</time>
      </trkpt>
      <trkpt lat="43.78189" lon="7.09321">
        <ele>697.09301757812</ele>
        <time>2012-06-16T09:42:12Z</time>
      </trkpt>
      <trkpt lat="43.78189" lon="7.09365">
        <ele>699.97705078125</ele>
        <time>2012-06-16T09:42:31Z</time>
      </trkpt>
      <trkpt lat="43.782" lon="7.09393">
        <ele>702.86108398438</ele>
        <time>2012-06-16T09:42:45Z</time>
      </trkpt>
      <trkpt lat="43.78219" lon="7.09436">
        <ele>705.7451171875</ele>
        <time>2012-06-16T09:43:09Z</time>
      </trkpt>
      <trkpt lat="43.78223" lon="7.09475">
        <ele>709.10961914062</ele>
        <time>2012-06-16T09:43:28Z</time>
      </trkpt>
      <trkpt lat="43.78229" lon="7.09509">
        <ele>712.47412109375</ele>
        <time>2012-06-16T09:43:46Z</time>
      </trkpt>
      <trkpt lat="43.78233" lon="7.09519">
        <ele>714.39672851562</ele>
        <time>2012-06-16T09:43:52Z</time>
      </trkpt>
      <trkpt lat="43.78248" lon="7.09558">
        <ele>715.8388671875</ele>
        <time>2012-06-16T09:44:14Z</time>
      </trkpt>
      <trkpt lat="43.78266" lon="7.09583">
        <ele>719.20361328125</ele>
        <time>2012-06-16T09:44:31Z</time>
      </trkpt>
      <trkpt lat="43.78294" lon="7.09604">
        <ele>721.60668945312</ele>
        <time>2012-06-16T09:44:52Z</time>
      </trkpt>
      <trkpt lat="43.78314" lon="7.09628">
        <ele>724.97143554688</ele>
        <time>2012-06-16T09:45:10Z</time>
      </trkpt>
      <trkpt lat="43.7833" lon="7.09638">
        <ele>728.3359375</ele>
        <time>2012-06-16T09:45:22Z</time>
      </trkpt>
      <trkpt lat="43.78354" lon="7.09664">
        <ele>730.7392578125</ele>
        <time>2012-06-16T09:45:43Z</time>
      </trkpt>
      <trkpt lat="43.78375" lon="7.09703">
        <ele>733.62329101562</ele>
        <time>2012-06-16T09:46:06Z</time>
      </trkpt>
      <trkpt lat="43.78381" lon="7.09732">
        <ele>734.10400390625</ele>
        <time>2012-06-16T09:46:21Z</time>
      </trkpt>
      <trkpt lat="43.78385" lon="7.0973">
        <ele>735.5458984375</ele>
        <time>2012-06-16T09:46:24Z</time>
      </trkpt>
      <trkpt lat="43.78386" lon="7.09726">
        <ele>736.50732421875</ele>
        <time>2012-06-16T09:46:26Z</time>
      </trkpt>
      <trkpt lat="43.78384" lon="7.09694">
        <ele>738.91064453125</ele>
        <time>2012-06-16T09:46:41Z</time>
      </trkpt>
      <trkpt lat="43.78373" lon="7.09655">
        <ele>741.31372070312</ele>
        <time>2012-06-16T09:47:01Z</time>
      </trkpt>
      <trkpt lat="43.7836" lon="7.09619">
        <ele>744.19775390625</ele>
        <time>2012-06-16T09:47:20Z</time>
      </trkpt>
      <trkpt lat="43.78347" lon="7.09573">
        <ele>747.56225585938</ele>
        <time>2012-06-16T09:47:43Z</time>
      </trkpt>
      <trkpt lat="43.78346" lon="7.09572">
        <ele>747.56225585938</ele>
        <time>2012-06-16T09:47:44Z</time>
      </trkpt>
      <trkpt lat="43.78335" lon="7.09542">
        <ele>750.92700195312</ele>
        <time>2012-06-16T09:47:59Z</time>
      </trkpt>
      <trkpt lat="43.78315" lon="7.09509">
        <ele>753.81103515625</ele>
        <time>2012-06-16T09:48:18Z</time>
      </trkpt>
      <trkpt lat="43.78306" lon="7.09483">
        <ele>757.17553710938</ele>
        <time>2012-06-16T09:48:32Z</time>
      </trkpt>
      <trkpt lat="43.78304" lon="7.09436">
        <ele>759.09814453125</ele>
        <time>2012-06-16T09:48:53Z</time>
      </trkpt>
      <trkpt lat="43.783" lon="7.09395">
        <ele>762.46264648438</ele>
        <time>2012-06-16T09:49:11Z</time>
      </trkpt>
      <trkpt lat="43.78314" lon="7.09349">
        <ele>765.82763671875</ele>
        <time>2012-06-16T09:49:34Z</time>
      </trkpt>
      <trkpt lat="43.78331" lon="7.09307">
        <ele>767.75</ele>
        <time>2012-06-16T09:49:56Z</time>
      </trkpt>
      <trkpt lat="43.78343" lon="7.09275">
        <ele>771.11474609375</ele>
        <time>2012-06-16T09:50:13Z</time>
      </trkpt>
      <trkpt lat="43.78361" lon="7.09236">
        <ele>773.99853515625</ele>
        <time>2012-06-16T09:50:35Z</time>
      </trkpt>
      <trkpt lat="43.78379" lon="7.0921">
        <ele>777.36328125</ele>
        <time>2012-06-16T09:50:53Z</time>
      </trkpt>
      <trkpt lat="43.7841" lon="7.09182">
        <ele>780.24731445312</ele>
        <time>2012-06-16T09:51:17Z</time>
      </trkpt>
      <trkpt lat="43.78437" lon="7.09163">
        <ele>783.13110351562</ele>
        <time>2012-06-16T09:51:37Z</time>
      </trkpt>
      <trkpt lat="43.78452" lon="7.09151">
        <ele>786.49584960938</ele>
        <time>2012-06-16T09:51:48Z</time>
      </trkpt>
      <trkpt lat="43.78482" lon="7.09128">
        <ele>788.89916992188</ele>
        <time>2012-06-16T09:52:10Z</time>
      </trkpt>
      <trkpt lat="43.78511" lon="7.091">
        <ele>791.30224609375</ele>
        <time>2012-06-16T09:52:32Z</time>
      </trkpt>
      <trkpt lat="43.78516" lon="7.0911">
        <ele>793.22485351562</ele>
        <time>2012-06-16T09:52:42Z</time>
      </trkpt>
      <trkpt lat="43.78492" lon="7.09143">
        <ele>795.62817382812</ele>
        <time>2012-06-16T09:53:02Z</time>
      </trkpt>
      <trkpt lat="43.78471" lon="7.09178">
        <ele>798.51220703125</ele>
        <time>2012-06-16T09:53:23Z</time>
      </trkpt>
      <trkpt lat="43.78436" lon="7.09219">
        <ele>798.99291992188</ele>
        <time>2012-06-16T09:53:50Z</time>
      </trkpt>
      <trkpt lat="43.7843" lon="7.09227">
        <ele>799.95434570312</ele>
        <time>2012-06-16T09:53:55Z</time>
      </trkpt>
      <trkpt lat="43.78437" lon="7.09231">
        <ele>800.43505859375</ele>
        <time>2012-06-16T09:54:01Z</time>
      </trkpt>
      <trkpt lat="43.7847" lon="7.092">
        <ele>802.83813476562</ele>
        <time>2012-06-16T09:54:24Z</time>
      </trkpt>
      <trkpt lat="43.78486" lon="7.0919">
        <ele>805.72216796875</ele>
        <time>2012-06-16T09:54:35Z</time>
      </trkpt>
      <trkpt lat="43.78515" lon="7.0917">
        <ele>808.60595703125</ele>
        <time>2012-06-16T09:54:56Z</time>
      </trkpt>
      <trkpt lat="43.78538" lon="7.09158">
        <ele>811.970703125</ele>
        <time>2012-06-16T09:55:11Z</time>
      </trkpt>
      <trkpt lat="43.7856" lon="7.09141">
        <ele>814.3740234375</ele>
        <time>2012-06-16T09:55:27Z</time>
      </trkpt>
      <trkpt lat="43.78587" lon="7.09119">
        <ele>816.77734375</ele>
        <time>2012-06-16T09:55:49Z</time>
      </trkpt>
      <trkpt lat="43.78582" lon="7.09095">
        <ele>819.1806640625</ele>
        <time>2012-06-16T09:56:00Z</time>
      </trkpt>
      <trkpt lat="43.78574" lon="7.0905">
        <ele>822.54516601562</ele>
        <time>2012-06-16T09:56:21Z</time>
      </trkpt>
      <trkpt lat="43.7856" lon="7.09013">
        <ele>825.90966796875</ele>
        <time>2012-06-16T09:56:41Z</time>
      </trkpt>
      <trkpt lat="43.78536" lon="7.08963">
        <ele>827.35180664062</ele>
        <time>2012-06-16T09:57:08Z</time>
      </trkpt>
      <trkpt lat="43.78524" lon="7.08944">
        <ele>829.75512695312</ele>
        <time>2012-06-16T09:57:18Z</time>
      </trkpt>
      <trkpt lat="43.78515" lon="7.0893">
        <ele>832.15844726562</ele>
        <time>2012-06-16T09:57:27Z</time>
      </trkpt>
      <trkpt lat="43.78524" lon="7.0893">
        <ele>832.63916015625</ele>
        <time>2012-06-16T09:57:35Z</time>
      </trkpt>
      <trkpt lat="43.7855" lon="7.08962">
        <ele>835.52294921875</ele>
        <time>2012-06-16T09:57:57Z</time>
      </trkpt>
      <trkpt lat="43.78564" lon="7.0898">
        <ele>838.8876953125</ele>
        <time>2012-06-16T09:58:10Z</time>
      </trkpt>
      <trkpt lat="43.78594" lon="7.09018">
        <ele>841.771484375</ele>
        <time>2012-06-16T09:58:36Z</time>
      </trkpt>
      <trkpt lat="43.78623" lon="7.09055">
        <ele>845.13623046875</ele>
        <time>2012-06-16T09:59:01Z</time>
      </trkpt>
      <trkpt lat="43.78646" lon="7.09081">
        <ele>848.02026367188</ele>
        <time>2012-06-16T09:59:20Z</time>
      </trkpt>
      <trkpt lat="43.78651" lon="7.09086">
        <ele>849.46215820312</ele>
        <time>2012-06-16T09:59:24Z</time>
      </trkpt>
      <trkpt lat="43.78676" lon="7.09116">
        <ele>852.34594726562</ele>
        <time>2012-06-16T09:59:45Z</time>
      </trkpt>
      <trkpt lat="43.78706" lon="7.09138">
        <ele>855.22998046875</ele>
        <time>2012-06-16T10:00:06Z</time>
      </trkpt>
      <trkpt lat="43.7871" lon="7.0914">
        <ele>856.671875</ele>
        <time>2012-06-16T10:00:09Z</time>
      </trkpt>
      <trkpt lat="43.7874" lon="7.0916">
        <ele>858.59448242188</ele>
        <time>2012-06-16T10:00:30Z</time>
      </trkpt>
      <trkpt lat="43.78761" lon="7.0917">
        <ele>861.95947265625</ele>
        <time>2012-06-16T10:00:44Z</time>
      </trkpt>
      <trkpt lat="43.78797" lon="7.09177">
        <ele>863.4013671875</ele>
        <time>2012-06-16T10:01:07Z</time>
      </trkpt>
      <trkpt lat="43.78821" lon="7.09178">
        <ele>866.28515625</ele>
        <time>2012-06-16T10:01:22Z</time>
      </trkpt>
      <trkpt lat="43.78842" lon="7.09177">
        <ele>869.64990234375</ele>
        <time>2012-06-16T10:01:36Z</time>
      </trkpt>
      <trkpt lat="43.78872" lon="7.09172">
        <ele>872.05297851562</ele>
        <time>2012-06-16T10:01:57Z</time>
      </trkpt>
      <trkpt lat="43.78888" lon="7.09167">
        <ele>874.93701171875</ele>
        <time>2012-06-16T10:02:08Z</time>
      </trkpt>
      <trkpt lat="43.78916" lon="7.09148">
        <ele>877.34057617188</ele>
        <time>2012-06-16T10:02:28Z</time>
      </trkpt>
      <trkpt lat="43.78945" lon="7.09147">
        <ele>880.705078125</ele>
        <time>2012-06-16T10:02:48Z</time>
      </trkpt>
      <trkpt lat="43.78972" lon="7.09162">
        <ele>883.5888671875</ele>
        <time>2012-06-16T10:03:07Z</time>
      </trkpt>
      <trkpt lat="43.78999" lon="7.09175">
        <ele>885.9921875</ele>
        <time>2012-06-16T10:03:27Z</time>
      </trkpt>
      <trkpt lat="43.79024" lon="7.09182">
        <ele>889.35668945312</ele>
        <time>2012-06-16T10:03:45Z</time>
      </trkpt>
      <trkpt lat="43.7903" lon="7.09185">
        <ele>890.31811523438</ele>
        <time>2012-06-16T10:03:49Z</time>
      </trkpt>
      <trkpt lat="43.79056" lon="7.0919">
        <ele>892.7216796875</ele>
        <time>2012-06-16T10:04:08Z</time>
      </trkpt>
      <trkpt lat="43.79082" lon="7.09179">
        <ele>896.08618164062</ele>
        <time>2012-06-16T10:04:27Z</time>
      </trkpt>
      <trkpt lat="43.79109" lon="7.09162">
        <ele>898.4892578125</ele>
        <time>2012-06-16T10:04:48Z</time>
      </trkpt>
      <trkpt lat="43.79124" lon="7.09156">
        <ele>901.85400390625</ele>
        <time>2012-06-16T10:05:00Z</time>
      </trkpt>
      <trkpt lat="43.79147" lon="7.09143">
        <ele>904.73779296875</ele>
        <time>2012-06-16T10:05:18Z</time>
      </trkpt>
      <trkpt lat="43.79162" lon="7.09123">
        <ele>908.10278320312</ele>
        <time>2012-06-16T10:05:34Z</time>
      </trkpt>
      <trkpt lat="43.79172" lon="7.09089">
        <ele>909.54467773438</ele>
        <time>2012-06-16T10:05:53Z</time>
      </trkpt>
      <trkpt lat="43.79188" lon="7.09053">
        <ele>912.9091796875</ele>
        <time>2012-06-16T10:06:15Z</time>
      </trkpt>
      <trkpt lat="43.79203" lon="7.09016">
        <ele>915.79321289062</ele>
        <time>2012-06-16T10:06:36Z</time>
      </trkpt>
      <trkpt lat="43.7921" lon="7.08983">
        <ele>915.79321289062</ele>
        <time>2012-06-16T10:06:53Z</time>
      </trkpt>
      <trkpt lat="43.79208" lon="7.08981">
        <ele>915.79321289062</ele>
        <time>2012-06-16T10:07:26Z</time>
      </trkpt>
      <trkpt lat="43.79207" lon="7.08982">
        <ele>915.79321289062</ele>
        <time>2012-06-16T10:07:49Z</time>
      </trkpt>
      <trkpt lat="43.79208" lon="7.0898">
        <ele>916.27368164062</ele>
        <time>2012-06-16T10:08:03Z</time>
      </trkpt>
      <trkpt lat="43.79208" lon="7.0898">
        <ele>915.3125</ele>
        <time>2012-06-16T10:08:35Z</time>
      </trkpt>
      <trkpt lat="43.79209" lon="7.08981">
        <ele>915.79321289062</ele>
        <time>2012-06-16T10:09:13Z</time>
      </trkpt>
      <trkpt lat="43.79209" lon="7.08981">
        <ele>916.75439453125</ele>
        <time>2012-06-16T10:09:46Z</time>
      </trkpt>
      <trkpt lat="43.79208" lon="7.08982">
        <ele>917.23510742188</ele>
        <time>2012-06-16T10:10:39Z</time>
      </trkpt>
      <trkpt lat="43.7921" lon="7.08981">
        <ele>917.23510742188</ele>
        <time>2012-06-16T10:10:47Z</time>
      </trkpt>
      <trkpt lat="43.79233" lon="7.08979">
        <ele>917.71557617188</ele>
        <time>2012-06-16T10:11:02Z</time>
      </trkpt>
      <trkpt lat="43.79234" lon="7.08978">
        <ele>918.1962890625</ele>
        <time>2012-06-16T10:11:03Z</time>
      </trkpt>
      <trkpt lat="43.79238" lon="7.08969">
        <ele>919.15771484375</ele>
        <time>2012-06-16T10:11:08Z</time>
      </trkpt>
      <trkpt lat="43.79243" lon="7.08954">
        <ele>921.08032226562</ele>
        <time>2012-06-16T10:11:21Z</time>
      </trkpt>
      <trkpt lat="43.79253" lon="7.08934">
        <ele>923.0029296875</ele>
        <time>2012-06-16T10:11:40Z</time>
      </trkpt>
      <trkpt lat="43.79262" lon="7.08911">
        <ele>925.88696289062</ele>
        <time>2012-06-16T10:11:58Z</time>
      </trkpt>
      <trkpt lat="43.7927" lon="7.08878">
        <ele>929.25146484375</ele>
        <time>2012-06-16T10:12:22Z</time>
      </trkpt>
      <trkpt lat="43.79275" lon="7.08867">
        <ele>931.17431640625</ele>
        <time>2012-06-16T10:12:37Z</time>
      </trkpt>
      <trkpt lat="43.79291" lon="7.08833">
        <ele>933.57739257812</ele>
        <time>2012-06-16T10:12:55Z</time>
      </trkpt>
      <trkpt lat="43.79307" lon="7.0879">
        <ele>935.98071289062</ele>
        <time>2012-06-16T10:13:17Z</time>
      </trkpt>
      <trkpt lat="43.79322" lon="7.08746">
        <ele>938.86474609375</ele>
        <time>2012-06-16T10:13:39Z</time>
      </trkpt>
      <trkpt lat="43.79339" lon="7.08697">
        <ele>940.78735351562</ele>
        <time>2012-06-16T10:14:03Z</time>
      </trkpt>
      <trkpt lat="43.79355" lon="7.08644">
        <ele>943.19067382812</ele>
        <time>2012-06-16T10:14:29Z</time>
      </trkpt>
      <trkpt lat="43.79386" lon="7.08591">
        <ele>945.59399414062</ele>
        <time>2012-06-16T10:14:54Z</time>
      </trkpt>
      <trkpt lat="43.79428" lon="7.08535">
        <ele>947.5166015625</ele>
        <time>2012-06-16T10:15:18Z</time>
      </trkpt>
      <trkpt lat="43.79479" lon="7.08483">
        <ele>948.95849609375</ele>
        <time>2012-06-16T10:15:40Z</time>
      </trkpt>
      <trkpt lat="43.79527" lon="7.08422">
        <ele>951.36181640625</ele>
        <time>2012-06-16T10:16:04Z</time>
      </trkpt>
      <trkpt lat="43.79574" lon="7.08399">
        <ele>953.76513671875</ele>
        <time>2012-06-16T10:16:23Z</time>
      </trkpt>
      <trkpt lat="43.79633" lon="7.08385">
        <ele>955.20703125</ele>
        <time>2012-06-16T10:16:45Z</time>
      </trkpt>
      <trkpt lat="43.79692" lon="7.08385">
        <ele>956.16845703125</ele>
        <time>2012-06-16T10:17:03Z</time>
      </trkpt>
      <trkpt lat="43.79728" lon="7.08396">
        <ele>956.16845703125</ele>
        <time>2012-06-16T10:17:18Z</time>
      </trkpt>
      <trkpt lat="43.79729" lon="7.0843">
        <ele>958.57177734375</ele>
        <time>2012-06-16T10:17:33Z</time>
      </trkpt>
      <trkpt lat="43.79727" lon="7.08447">
        <ele>961.45581054688</ele>
        <time>2012-06-16T10:17:41Z</time>
      </trkpt>
      <trkpt lat="43.79724" lon="7.0846">
        <ele>964.33959960938</ele>
        <time>2012-06-16T10:17:48Z</time>
      </trkpt>
      <trkpt lat="43.79706" lon="7.08483">
        <ele>967.2236328125</ele>
        <time>2012-06-16T10:18:06Z</time>
      </trkpt>
      <trkpt lat="43.79681" lon="7.08499">
        <ele>969.14624023438</ele>
        <time>2012-06-16T10:18:25Z</time>
      </trkpt>
      <trkpt lat="43.79659" lon="7.08529">
        <ele>970.58813476562</ele>
        <time>2012-06-16T10:18:47Z</time>
      </trkpt>
      <trkpt lat="43.79639" lon="7.08568">
        <ele>972.99169921875</ele>
        <time>2012-06-16T10:19:09Z</time>
      </trkpt>
      <trkpt lat="43.79617" lon="7.08591">
        <ele>974.91430664062</ele>
        <time>2012-06-16T10:19:24Z</time>
      </trkpt>
      <trkpt lat="43.79588" lon="7.08613">
        <ele>976.35620117188</ele>
        <time>2012-06-16T10:19:41Z</time>
      </trkpt>
      <trkpt lat="43.7956" lon="7.08646">
        <ele>978.75952148438</ele>
        <time>2012-06-16T10:20:03Z</time>
      </trkpt>
      <trkpt lat="43.79551" lon="7.08685">
        <ele>978.27880859375</ele>
        <time>2012-06-16T10:20:16Z</time>
      </trkpt>
      <trkpt lat="43.79547" lon="7.08712">
        <ele>974.43359375</ele>
        <time>2012-06-16T10:20:20Z</time>
      </trkpt>
      <trkpt lat="43.79547" lon="7.08721">
        <ele>973.95288085938</ele>
        <time>2012-06-16T10:20:21Z</time>
      </trkpt>
      <trkpt lat="43.79532" lon="7.08764">
        <ele>973.47241210938</ele>
        <time>2012-06-16T10:20:29Z</time>
      </trkpt>
      <trkpt lat="43.79544" lon="7.08791">
        <ele>974.43359375</ele>
        <time>2012-06-16T10:20:42Z</time>
      </trkpt>
      <trkpt lat="43.79542" lon="7.08824">
        <ele>974.91430664062</ele>
        <time>2012-06-16T10:20:56Z</time>
      </trkpt>
      <trkpt lat="43.7954" lon="7.08854">
        <ele>976.8369140625</ele>
        <time>2012-06-16T10:21:07Z</time>
      </trkpt>
      <trkpt lat="43.79536" lon="7.08917">
        <ele>976.8369140625</ele>
        <time>2012-06-16T10:21:28Z</time>
      </trkpt>
      <trkpt lat="43.7953" lon="7.08986">
        <ele>975.39477539062</ele>
        <time>2012-06-16T10:21:45Z</time>
      </trkpt>
      <trkpt lat="43.79528" lon="7.09032">
        <ele>978.27880859375</ele>
        <time>2012-06-16T10:21:56Z</time>
      </trkpt>
      <trkpt lat="43.79526" lon="7.09079">
        <ele>980.68212890625</ele>
        <time>2012-06-16T10:22:14Z</time>
      </trkpt>
      <trkpt lat="43.7952" lon="7.09137">
        <ele>980.20141601562</ele>
        <time>2012-06-16T10:22:33Z</time>
      </trkpt>
      <trkpt lat="43.79516" lon="7.09211">
        <ele>978.75952148438</ele>
        <time>2012-06-16T10:22:49Z</time>
      </trkpt>
      <trkpt lat="43.79511" lon="7.0926">
        <ele>978.75952148438</ele>
        <time>2012-06-16T10:23:01Z</time>
      </trkpt>
      <trkpt lat="43.79509" lon="7.09311">
        <ele>979.720703125</ele>
        <time>2012-06-16T10:23:19Z</time>
      </trkpt>
      <trkpt lat="43.79506" lon="7.09329">
        <ele>981.64331054688</ele>
        <time>2012-06-16T10:23:25Z</time>
      </trkpt>
      <trkpt lat="43.79505" lon="7.09356">
        <ele>985.00805664062</ele>
        <time>2012-06-16T10:23:35Z</time>
      </trkpt>
      <trkpt lat="43.795" lon="7.09422">
        <ele>985.00805664062</ele>
        <time>2012-06-16T10:23:55Z</time>
      </trkpt>
      <trkpt lat="43.79499" lon="7.09455">
        <ele>983.08520507812</ele>
        <time>2012-06-16T10:24:00Z</time>
      </trkpt>
      <trkpt lat="43.79496" lon="7.0948">
        <ele>984.04663085938</ele>
        <time>2012-06-16T10:24:06Z</time>
      </trkpt>
      <trkpt lat="43.79458" lon="7.09498">
        <ele>985.96923828125</ele>
        <time>2012-06-16T10:24:22Z</time>
      </trkpt>
      <trkpt lat="43.79425" lon="7.095">
        <ele>984.04663085938</ele>
        <time>2012-06-16T10:24:35Z</time>
      </trkpt>
      <trkpt lat="43.79388" lon="7.09503">
        <ele>985.96923828125</ele>
        <time>2012-06-16T10:24:49Z</time>
      </trkpt>
      <trkpt lat="43.79357" lon="7.09516">
        <ele>988.37280273438</ele>
        <time>2012-06-16T10:25:03Z</time>
      </trkpt>
      <trkpt lat="43.79312" lon="7.09533">
        <ele>988.37280273438</ele>
        <time>2012-06-16T10:25:20Z</time>
      </trkpt>
      <trkpt lat="43.79277" lon="7.09548">
        <ele>988.853515625</ele>
        <time>2012-06-16T10:25:35Z</time>
      </trkpt>
      <trkpt lat="43.7924" lon="7.0958">
        <ele>991.25659179688</ele>
        <time>2012-06-16T10:25:55Z</time>
      </trkpt>
      <trkpt lat="43.79204" lon="7.09602">
        <ele>990.77587890625</ele>
        <time>2012-06-16T10:26:07Z</time>
      </trkpt>
      <trkpt lat="43.79175" lon="7.09635">
        <ele>992.69873046875</ele>
        <time>2012-06-16T10:26:24Z</time>
      </trkpt>
      <trkpt lat="43.79146" lon="7.09664">
        <ele>993.65991210938</ele>
        <time>2012-06-16T10:26:42Z</time>
      </trkpt>
      <trkpt lat="43.79128" lon="7.09707">
        <ele>996.5439453125</ele>
        <time>2012-06-16T10:26:59Z</time>
      </trkpt>
      <trkpt lat="43.79095" lon="7.09735">
        <ele>997.98583984375</ele>
        <time>2012-06-16T10:27:15Z</time>
      </trkpt>
      <trkpt lat="43.79066" lon="7.09761">
        <ele>999.90844726562</ele>
        <time>2012-06-16T10:27:31Z</time>
      </trkpt>
      <trkpt lat="43.79044" lon="7.09791">
        <ele>1002.7922363281</ele>
        <time>2012-06-16T10:27:49Z</time>
      </trkpt>
      <trkpt lat="43.79021" lon="7.09828">
        <ele>1006.1569824219</ele>
        <time>2012-06-16T10:28:12Z</time>
      </trkpt>
      <trkpt lat="43.79018" lon="7.09839">
        <ele>1007.5991210938</ele>
        <time>2012-06-16T10:28:17Z</time>
      </trkpt>
      <trkpt lat="43.79003" lon="7.09886">
        <ele>1009.5217285156</ele>
        <time>2012-06-16T10:28:41Z</time>
      </trkpt>
      <trkpt lat="43.78995" lon="7.09941">
        <ele>1011.4443359375</ele>
        <time>2012-06-16T10:29:02Z</time>
      </trkpt>
      <trkpt lat="43.79019" lon="7.09981">
        <ele>1010.9636230469</ele>
        <time>2012-06-16T10:29:12Z</time>
      </trkpt>
      <trkpt lat="43.79031" lon="7.10004">
        <ele>1007.1184082031</ele>
        <time>2012-06-16T10:29:15Z</time>
      </trkpt>
      <trkpt lat="43.79036" lon="7.10011">
        <ele>1007.1184082031</ele>
        <time>2012-06-16T10:29:16Z</time>
      </trkpt>
      <trkpt lat="43.79077" lon="7.10072">
        <ele>1004.7150878906</ele>
        <time>2012-06-16T10:29:24Z</time>
      </trkpt>
      <trkpt lat="43.79091" lon="7.10116">
        <ele>1002.7922363281</ele>
        <time>2012-06-16T10:29:29Z</time>
      </trkpt>
      <trkpt lat="43.79095" lon="7.10139">
        <ele>1003.2729492188</ele>
        <time>2012-06-16T10:29:32Z</time>
      </trkpt>
      <trkpt lat="43.79105" lon="7.10164">
        <ele>1002.3115234375</ele>
        <time>2012-06-16T10:29:36Z</time>
      </trkpt>
      <trkpt lat="43.79095" lon="7.10212">
        <ele>1001.8310546875</ele>
        <time>2012-06-16T10:29:44Z</time>
      </trkpt>
      <trkpt lat="43.79087" lon="7.10216">
        <ele>1001.8310546875</ele>
        <time>2012-06-16T10:29:46Z</time>
      </trkpt>
      <trkpt lat="43.79039" lon="7.10229">
        <ele>1003.2729492188</ele>
        <time>2012-06-16T10:30:04Z</time>
      </trkpt>
      <trkpt lat="43.79031" lon="7.10263">
        <ele>1003.7536621094</ele>
        <time>2012-06-16T10:30:17Z</time>
      </trkpt>
      <trkpt lat="43.79024" lon="7.10339">
        <ele>1004.7150878906</ele>
        <time>2012-06-16T10:30:40Z</time>
      </trkpt>
      <trkpt lat="43.79028" lon="7.10371">
        <ele>1008.0798339844</ele>
        <time>2012-06-16T10:30:53Z</time>
      </trkpt>
      <trkpt lat="43.79025" lon="7.10394">
        <ele>1010.0021972656</ele>
        <time>2012-06-16T10:31:04Z</time>
      </trkpt>
      <trkpt lat="43.79024" lon="7.10431">
        <ele>1012.4055175781</ele>
        <time>2012-06-16T10:31:25Z</time>
      </trkpt>
      <trkpt lat="43.79037" lon="7.10479">
        <ele>1013.8474121094</ele>
        <time>2012-06-16T10:31:46Z</time>
      </trkpt>
      <trkpt lat="43.79042" lon="7.1053">
        <ele>1014.8088378906</ele>
        <time>2012-06-16T10:32:05Z</time>
      </trkpt>
      <trkpt lat="43.79037" lon="7.106">
        <ele>1015.7702636719</ele>
        <time>2012-06-16T10:32:25Z</time>
      </trkpt>
      <trkpt lat="43.79039" lon="7.10657">
        <ele>1015.7702636719</ele>
        <time>2012-06-16T10:32:41Z</time>
      </trkpt>
      <trkpt lat="43.79037" lon="7.10703">
        <ele>1016.7314453125</ele>
        <time>2012-06-16T10:32:56Z</time>
      </trkpt>
      <trkpt lat="43.79036" lon="7.1075">
        <ele>1018.6540527344</ele>
        <time>2012-06-16T10:33:11Z</time>
      </trkpt>
      <trkpt lat="43.79045" lon="7.1078">
        <ele>1018.6540527344</ele>
        <time>2012-06-16T10:33:26Z</time>
      </trkpt>
      <trkpt lat="43.79045" lon="7.1078">
        <ele>1019.6154785156</ele>
        <time>2012-06-16T10:34:10Z</time>
      </trkpt>
      <trkpt lat="43.79052" lon="7.10808">
        <ele>1016.2507324219</ele>
        <time>2012-06-16T10:34:18Z</time>
      </trkpt>
      <trkpt lat="43.79054" lon="7.10815">
        <ele>1015.2895507812</ele>
        <time>2012-06-16T10:34:19Z</time>
      </trkpt>
      <trkpt lat="43.79056" lon="7.10845">
        <ele>1016.7314453125</ele>
        <time>2012-06-16T10:34:25Z</time>
      </trkpt>
      <trkpt lat="43.79053" lon="7.10889">
        <ele>1014.8088378906</ele>
        <time>2012-06-16T10:34:36Z</time>
      </trkpt>
      <trkpt lat="43.79052" lon="7.10914">
        <ele>1013.3669433594</ele>
        <time>2012-06-16T10:34:45Z</time>
      </trkpt>
      <trkpt lat="43.7905" lon="7.1098">
        <ele>1010.0021972656</ele>
        <time>2012-06-16T10:34:52Z</time>
      </trkpt>
      <trkpt lat="43.7905" lon="7.10995">
        <ele>1009.041015625</ele>
        <time>2012-06-16T10:34:54Z</time>
      </trkpt>
      <trkpt lat="43.7905" lon="7.11026">
        <ele>1006.1569824219</ele>
        <time>2012-06-16T10:34:58Z</time>
      </trkpt>
      <trkpt lat="43.79054" lon="7.11077">
        <ele>1005.1958007812</ele>
        <time>2012-06-16T10:35:06Z</time>
      </trkpt>
      <trkpt lat="43.7906" lon="7.11097">
        <ele>1002.7922363281</ele>
        <time>2012-06-16T10:35:09Z</time>
      </trkpt>
      <trkpt lat="43.79063" lon="7.11104">
        <ele>1002.3115234375</ele>
        <time>2012-06-16T10:35:10Z</time>
      </trkpt>
      <trkpt lat="43.79071" lon="7.11126">
        <ele>1002.3115234375</ele>
        <time>2012-06-16T10:35:13Z</time>
      </trkpt>
      <trkpt lat="43.79076" lon="7.11158">
        <ele>1000.8696289062</ele>
        <time>2012-06-16T10:35:17Z</time>
      </trkpt>
      <trkpt lat="43.7911" lon="7.112">
        <ele>999.427734375</ele>
        <time>2012-06-16T10:35:27Z</time>
      </trkpt>
      <trkpt lat="43.79118" lon="7.11214">
        <ele>999.427734375</ele>
        <time>2012-06-16T10:35:30Z</time>
      </trkpt>
      <trkpt lat="43.79152" lon="7.11244">
        <ele>1000.3891601562</ele>
        <time>2012-06-16T10:35:43Z</time>
      </trkpt>
      <trkpt lat="43.79174" lon="7.11251">
        <ele>1002.3115234375</ele>
        <time>2012-06-16T10:35:50Z</time>
      </trkpt>
      <trkpt lat="43.79201" lon="7.11301">
        <ele>1000.8696289062</ele>
        <time>2012-06-16T10:36:03Z</time>
      </trkpt>
      <trkpt lat="43.79243" lon="7.11334">
        <ele>997.50512695312</ele>
        <time>2012-06-16T10:36:17Z</time>
      </trkpt>
      <trkpt lat="43.79263" lon="7.1134">
        <ele>995.10180664062</ele>
        <time>2012-06-16T10:36:24Z</time>
      </trkpt>
      <trkpt lat="43.79288" lon="7.11325">
        <ele>993.17919921875</ele>
        <time>2012-06-16T10:36:33Z</time>
      </trkpt>
      <trkpt lat="43.7929" lon="7.11328">
        <ele>993.65991210938</ele>
        <time>2012-06-16T10:36:34Z</time>
      </trkpt>
      <trkpt lat="43.79297" lon="7.11344">
        <ele>990.77587890625</ele>
        <time>2012-06-16T10:36:38Z</time>
      </trkpt>
      <trkpt lat="43.79311" lon="7.11365">
        <ele>988.853515625</ele>
        <time>2012-06-16T10:36:42Z</time>
      </trkpt>
      <trkpt lat="43.7933" lon="7.11376">
        <ele>987.89184570312</ele>
        <time>2012-06-16T10:36:46Z</time>
      </trkpt>
      <trkpt lat="43.7936" lon="7.11393">
        <ele>987.4111328125</ele>
        <time>2012-06-16T10:36:58Z</time>
      </trkpt>
      <trkpt lat="43.79386" lon="7.11412">
        <ele>985.96923828125</ele>
        <time>2012-06-16T10:37:11Z</time>
      </trkpt>
      <trkpt lat="43.79397" lon="7.11426">
        <ele>985.48852539062</ele>
        <time>2012-06-16T10:37:15Z</time>
      </trkpt>
      <trkpt lat="43.79408" lon="7.11456">
        <ele>983.08520507812</ele>
        <time>2012-06-16T10:37:20Z</time>
      </trkpt>
      <trkpt lat="43.79414" lon="7.11484">
        <ele>982.1240234375</ele>
        <time>2012-06-16T10:37:24Z</time>
      </trkpt>
      <trkpt lat="43.79401" lon="7.11537">
        <ele>981.64331054688</ele>
        <time>2012-06-16T10:37:33Z</time>
      </trkpt>
      <trkpt lat="43.7939" lon="7.11606">
        <ele>981.64331054688</ele>
        <time>2012-06-16T10:37:46Z</time>
      </trkpt>
      <trkpt lat="43.79392" lon="7.11619">
        <ele>981.16284179688</ele>
        <time>2012-06-16T10:37:48Z</time>
      </trkpt>
      <trkpt lat="43.79399" lon="7.11639">
        <ele>980.20141601562</ele>
        <time>2012-06-16T10:37:51Z</time>
      </trkpt>
      <trkpt lat="43.79405" lon="7.11662">
        <ele>978.75952148438</ele>
        <time>2012-06-16T10:37:54Z</time>
      </trkpt>
      <trkpt lat="43.79406" lon="7.11669">
        <ele>979.23999023438</ele>
        <time>2012-06-16T10:37:55Z</time>
      </trkpt>
      <trkpt lat="43.79428" lon="7.11699">
        <ele>981.16284179688</ele>
        <time>2012-06-16T10:38:06Z</time>
      </trkpt>
      <trkpt lat="43.79464" lon="7.11735">
        <ele>982.1240234375</ele>
        <time>2012-06-16T10:38:24Z</time>
      </trkpt>
      <trkpt lat="43.79494" lon="7.11773">
        <ele>985.48852539062</ele>
        <time>2012-06-16T10:38:43Z</time>
      </trkpt>
      <trkpt lat="43.79516" lon="7.11806">
        <ele>987.89184570312</ele>
        <time>2012-06-16T10:39:01Z</time>
      </trkpt>
      <trkpt lat="43.79523" lon="7.11817">
        <ele>989.81469726562</ele>
        <time>2012-06-16T10:39:08Z</time>
      </trkpt>
      <trkpt lat="43.79534" lon="7.11839">
        <ele>993.65991210938</ele>
        <time>2012-06-16T10:39:20Z</time>
      </trkpt>
      <trkpt lat="43.79552" lon="7.1187">
        <ele>993.65991210938</ele>
        <time>2012-06-16T10:39:38Z</time>
      </trkpt>
      <trkpt lat="43.79563" lon="7.11898">
        <ele>997.0244140625</ele>
        <time>2012-06-16T10:39:53Z</time>
      </trkpt>
      <trkpt lat="43.79594" lon="7.11946">
        <ele>996.5439453125</ele>
        <time>2012-06-16T10:40:11Z</time>
      </trkpt>
      <trkpt lat="43.79619" lon="7.11999">
        <ele>995.10180664062</ele>
        <time>2012-06-16T10:40:24Z</time>
      </trkpt>
      <trkpt lat="43.79625" lon="7.12021">
        <ele>994.140625</ele>
        <time>2012-06-16T10:40:29Z</time>
      </trkpt>
      <trkpt lat="43.79611" lon="7.12055">
        <ele>996.5439453125</ele>
        <time>2012-06-16T10:40:40Z</time>
      </trkpt>
      <trkpt lat="43.79607" lon="7.12081">
        <ele>997.0244140625</ele>
        <time>2012-06-16T10:40:50Z</time>
      </trkpt>
      <trkpt lat="43.79603" lon="7.12111">
        <ele>998.94702148438</ele>
        <time>2012-06-16T10:41:03Z</time>
      </trkpt>
      <trkpt lat="43.79583" lon="7.12156">
        <ele>1000.3891601562</ele>
        <time>2012-06-16T10:41:23Z</time>
      </trkpt>
      <trkpt lat="43.79566" lon="7.12188">
        <ele>1002.3115234375</ele>
        <time>2012-06-16T10:41:39Z</time>
      </trkpt>
      <trkpt lat="43.79565" lon="7.12229">
        <ele>1005.1958007812</ele>
        <time>2012-06-16T10:41:56Z</time>
      </trkpt>
      <trkpt lat="43.79579" lon="7.12262">
        <ele>1006.6376953125</ele>
        <time>2012-06-16T10:42:12Z</time>
      </trkpt>
      <trkpt lat="43.79584" lon="7.12304">
        <ele>1007.5991210938</ele>
        <time>2012-06-16T10:42:28Z</time>
      </trkpt>
      <trkpt lat="43.79571" lon="7.12357">
        <ele>1010.4829101562</ele>
        <time>2012-06-16T10:42:46Z</time>
      </trkpt>
      <trkpt lat="43.79569" lon="7.12403">
        <ele>1010.0021972656</ele>
        <time>2012-06-16T10:43:01Z</time>
      </trkpt>
      <trkpt lat="43.79569" lon="7.12419">
        <ele>1010.0021972656</ele>
        <time>2012-06-16T10:43:04Z</time>
      </trkpt>
      <trkpt lat="43.79558" lon="7.1244">
        <ele>1008.0798339844</ele>
        <time>2012-06-16T10:43:08Z</time>
      </trkpt>
      <trkpt lat="43.79553" lon="7.12443">
        <ele>1007.1184082031</ele>
        <time>2012-06-16T10:43:09Z</time>
      </trkpt>
      <trkpt lat="43.79528" lon="7.12472">
        <ele>1004.2346191406</ele>
        <time>2012-06-16T10:43:15Z</time>
      </trkpt>
      <trkpt lat="43.79505" lon="7.12535">
        <ele>1004.7150878906</ele>
        <time>2012-06-16T10:43:28Z</time>
      </trkpt>
      <trkpt lat="43.79498" lon="7.12545">
        <ele>1006.1569824219</ele>
        <time>2012-06-16T10:43:33Z</time>
      </trkpt>
      <trkpt lat="43.79493" lon="7.12568">
        <ele>1009.5217285156</ele>
        <time>2012-06-16T10:43:43Z</time>
      </trkpt>
      <trkpt lat="43.79489" lon="7.12599">
        <ele>1012.4055175781</ele>
        <time>2012-06-16T10:43:58Z</time>
      </trkpt>
      <trkpt lat="43.79478" lon="7.12605">
        <ele>1013.8474121094</ele>
        <time>2012-06-16T10:44:05Z</time>
      </trkpt>
      <trkpt lat="43.79446" lon="7.12621">
        <ele>1015.2895507812</ele>
        <time>2012-06-16T10:44:24Z</time>
      </trkpt>
      <trkpt lat="43.79409" lon="7.12637">
        <ele>1015.2895507812</ele>
        <time>2012-06-16T10:44:42Z</time>
      </trkpt>
      <trkpt lat="43.79378" lon="7.12661">
        <ele>1018.6540527344</ele>
        <time>2012-06-16T10:45:01Z</time>
      </trkpt>
      <trkpt lat="43.79359" lon="7.12705">
        <ele>1020.5769042969</ele>
        <time>2012-06-16T10:45:22Z</time>
      </trkpt>
      <trkpt lat="43.79333" lon="7.12719">
        <ele>1020.5769042969</ele>
        <time>2012-06-16T10:45:36Z</time>
      </trkpt>
      <trkpt lat="43.793" lon="7.12743">
        <ele>1020.0961914062</ele>
        <time>2012-06-16T10:45:50Z</time>
      </trkpt>
      <trkpt lat="43.79297" lon="7.12748">
        <ele>1019.134765625</ele>
        <time>2012-06-16T10:46:00Z</time>
      </trkpt>
      <trkpt lat="43.79297" lon="7.12748">
        <ele>1019.6154785156</ele>
        <time>2012-06-16T10:46:12Z</time>
      </trkpt>
      <trkpt lat="43.79297" lon="7.12748">
        <ele>1020.0961914062</ele>
        <time>2012-06-16T10:46:36Z</time>
      </trkpt>
      <trkpt lat="43.79297" lon="7.12748">
        <ele>1019.6154785156</ele>
        <time>2012-06-16T10:47:03Z</time>
      </trkpt>
      <trkpt lat="43.79297" lon="7.12748">
        <ele>1019.134765625</ele>
        <time>2012-06-16T10:47:23Z</time>
      </trkpt>
      <trkpt lat="43.79297" lon="7.12748">
        <ele>1019.134765625</ele>
        <time>2012-06-16T10:47:38Z</time>
      </trkpt>
      <trkpt lat="43.79297" lon="7.12748">
        <ele>1019.134765625</ele>
        <time>2012-06-16T10:48:11Z</time>
      </trkpt>
      <trkpt lat="43.79297" lon="7.12748">
        <ele>1019.6154785156</ele>
        <time>2012-06-16T10:48:33Z</time>
      </trkpt>
      <trkpt lat="43.79297" lon="7.12748">
        <ele>1019.134765625</ele>
        <time>2012-06-16T10:49:17Z</time>
      </trkpt>
      <trkpt lat="43.79297" lon="7.12748">
        <ele>1019.134765625</ele>
        <time>2012-06-16T10:49:39Z</time>
      </trkpt>
      <trkpt lat="43.79297" lon="7.12748">
        <ele>1019.134765625</ele>
        <time>2012-06-16T10:50:49Z</time>
      </trkpt>
      <trkpt lat="43.79297" lon="7.12748">
        <ele>1020.0961914062</ele>
        <time>2012-06-16T10:51:31Z</time>
      </trkpt>
      <trkpt lat="43.79297" lon="7.12748">
        <ele>1020.0961914062</ele>
        <time>2012-06-16T10:53:28Z</time>
      </trkpt>
      <trkpt lat="43.79297" lon="7.12748">
        <ele>1020.5769042969</ele>
        <time>2012-06-16T10:53:45Z</time>
      </trkpt>
      <trkpt lat="43.79297" lon="7.12748">
        <ele>1020.5769042969</ele>
        <time>2012-06-16T10:54:01Z</time>
      </trkpt>
      <trkpt lat="43.79297" lon="7.12748">
        <ele>1021.0576171875</ele>
        <time>2012-06-16T10:54:06Z</time>
      </trkpt>
      <trkpt lat="43.79294" lon="7.12774">
        <ele>1018.6540527344</ele>
        <time>2012-06-16T10:54:13Z</time>
      </trkpt>
      <trkpt lat="43.79292" lon="7.12792">
        <ele>1016.7314453125</ele>
        <time>2012-06-16T10:54:16Z</time>
      </trkpt>
      <trkpt lat="43.79287" lon="7.12836">
        <ele>1014.328125</ele>
        <time>2012-06-16T10:54:25Z</time>
      </trkpt>
      <trkpt lat="43.79285" lon="7.12855">
        <ele>1010.9636230469</ele>
        <time>2012-06-16T10:54:29Z</time>
      </trkpt>
      <trkpt lat="43.79282" lon="7.12882">
        <ele>1006.6376953125</ele>
        <time>2012-06-16T10:54:35Z</time>
      </trkpt>
      <trkpt lat="43.79281" lon="7.12886">
        <ele>1006.6376953125</ele>
        <time>2012-06-16T10:54:36Z</time>
      </trkpt>
      <trkpt lat="43.79279" lon="7.12899">
        <ele>1005.1958007812</ele>
        <time>2012-06-16T10:54:40Z</time>
      </trkpt>
      <trkpt lat="43.79268" lon="7.12894">
        <ele>1004.2346191406</ele>
        <time>2012-06-16T10:54:45Z</time>
      </trkpt>
      <trkpt lat="43.7925" lon="7.12888">
        <ele>1000.3891601562</ele>
        <time>2012-06-16T10:54:52Z</time>
      </trkpt>
      <trkpt lat="43.7923" lon="7.12892">
        <ele>996.5439453125</ele>
        <time>2012-06-16T10:55:01Z</time>
      </trkpt>
      <trkpt lat="43.7923" lon="7.12903">
        <ele>996.06323242188</ele>
        <time>2012-06-16T10:55:03Z</time>
      </trkpt>
      <trkpt lat="43.79235" lon="7.12906">
        <ele>995.10180664062</ele>
        <time>2012-06-16T10:55:06Z</time>
      </trkpt>
      <trkpt lat="43.79247" lon="7.12927">
        <ele>991.7373046875</ele>
        <time>2012-06-16T10:55:15Z</time>
      </trkpt>
      <trkpt lat="43.79233" lon="7.12941">
        <ele>987.4111328125</ele>
        <time>2012-06-16T10:55:23Z</time>
      </trkpt>
      <trkpt lat="43.79232" lon="7.12942">
        <ele>986.93041992188</ele>
        <time>2012-06-16T10:55:24Z</time>
      </trkpt>
      <trkpt lat="43.79228" lon="7.12956">
        <ele>985.48852539062</ele>
        <time>2012-06-16T10:55:29Z</time>
      </trkpt>
      <trkpt lat="43.79235" lon="7.12998">
        <ele>982.1240234375</ele>
        <time>2012-06-16T10:55:38Z</time>
      </trkpt>
      <trkpt lat="43.79241" lon="7.13021">
        <ele>979.23999023438</ele>
        <time>2012-06-16T10:55:44Z</time>
      </trkpt>
      <trkpt lat="43.79241" lon="7.13035">
        <ele>976.8369140625</ele>
        <time>2012-06-16T10:55:48Z</time>
      </trkpt>
      <trkpt lat="43.79224" lon="7.13056">
        <ele>973.95288085938</ele>
        <time>2012-06-16T10:55:57Z</time>
      </trkpt>
      <trkpt lat="43.79208" lon="7.1306">
        <ele>971.06884765625</ele>
        <time>2012-06-16T10:56:04Z</time>
      </trkpt>
      <trkpt lat="43.79193" lon="7.13061">
        <ele>968.66552734375</ele>
        <time>2012-06-16T10:56:10Z</time>
      </trkpt>
      <trkpt lat="43.79187" lon="7.13063">
        <ele>967.2236328125</ele>
        <time>2012-06-16T10:56:13Z</time>
      </trkpt>
      <trkpt lat="43.79168" lon="7.13079">
        <ele>963.85888671875</ele>
        <time>2012-06-16T10:56:23Z</time>
      </trkpt>
      <trkpt lat="43.79148" lon="7.13082">
        <ele>960.49438476562</ele>
        <time>2012-06-16T10:56:31Z</time>
      </trkpt>
      <trkpt lat="43.79146" lon="7.13083">
        <ele>959.533203125</ele>
        <time>2012-06-16T10:56:40Z</time>
      </trkpt>
      <trkpt lat="43.79146" lon="7.13083">
        <ele>959.533203125</ele>
        <time>2012-06-16T10:56:53Z</time>
      </trkpt>
      <trkpt lat="43.79146" lon="7.13083">
        <ele>958.57177734375</ele>
        <time>2012-06-16T10:57:18Z</time>
      </trkpt>
      <trkpt lat="43.79146" lon="7.13083">
        <ele>958.09130859375</ele>
        <time>2012-06-16T10:57:23Z</time>
      </trkpt>
      <trkpt lat="43.79139" lon="7.13086">
        <ele>958.09130859375</ele>
        <time>2012-06-16T10:57:26Z</time>
      </trkpt>
      <trkpt lat="43.79129" lon="7.13084">
        <ele>956.16845703125</ele>
        <time>2012-06-16T10:57:29Z</time>
      </trkpt>
      <trkpt lat="43.79122" lon="7.13077">
        <ele>954.72631835938</ele>
        <time>2012-06-16T10:57:32Z</time>
      </trkpt>
      <trkpt lat="43.79106" lon="7.13066">
        <ele>951.36181640625</ele>
        <time>2012-06-16T10:57:41Z</time>
      </trkpt>
      <trkpt lat="43.79104" lon="7.13065">
        <ele>951.36181640625</ele>
        <time>2012-06-16T10:57:42Z</time>
      </trkpt>
      <trkpt lat="43.79089" lon="7.13062">
        <ele>949.43920898438</ele>
        <time>2012-06-16T10:57:49Z</time>
      </trkpt>
      <trkpt lat="43.79067" lon="7.13071">
        <ele>946.07470703125</ele>
        <time>2012-06-16T10:58:00Z</time>
      </trkpt>
      <trkpt lat="43.7906" lon="7.13076">
        <ele>945.11328125</ele>
        <time>2012-06-16T10:58:05Z</time>
      </trkpt>
      <trkpt lat="43.79036" lon="7.1309">
        <ele>941.74877929688</ele>
        <time>2012-06-16T10:58:15Z</time>
      </trkpt>
      <trkpt lat="43.7902" lon="7.13114">
        <ele>940.30688476562</ele>
        <time>2012-06-16T10:58:24Z</time>
      </trkpt>
      <trkpt lat="43.7902" lon="7.13114">
        <ele>939.82592773438</ele>
        <time>2012-06-16T10:58:39Z</time>
      </trkpt>
      <trkpt lat="43.7902" lon="7.13114">
        <ele>939.82592773438</ele>
        <time>2012-06-16T10:59:05Z</time>
      </trkpt>
      <trkpt lat="43.7902" lon="7.13114">
        <ele>939.82592773438</ele>
        <time>2012-06-16T10:59:27Z</time>
      </trkpt>
      <trkpt lat="43.78994" lon="7.13143">
        <ele>940.78735351562</ele>
        <time>2012-06-16T10:59:41Z</time>
      </trkpt>
      <trkpt lat="43.78957" lon="7.13183">
        <ele>943.19067382812</ele>
        <time>2012-06-16T11:00:00Z</time>
      </trkpt>
      <trkpt lat="43.78936" lon="7.13216">
        <ele>942.71020507812</ele>
        <time>2012-06-16T11:00:11Z</time>
      </trkpt>
      <trkpt lat="43.78906" lon="7.13233">
        <ele>941.26806640625</ele>
        <time>2012-06-16T11:00:19Z</time>
      </trkpt>
      <trkpt lat="43.78872" lon="7.13245">
        <ele>940.30688476562</ele>
        <time>2012-06-16T11:00:29Z</time>
      </trkpt>
      <trkpt lat="43.78842" lon="7.13273">
        <ele>940.30688476562</ele>
        <time>2012-06-16T11:00:42Z</time>
      </trkpt>
      <trkpt lat="43.78836" lon="7.13282">
        <ele>940.30688476562</ele>
        <time>2012-06-16T11:00:46Z</time>
      </trkpt>
      <trkpt lat="43.78837" lon="7.13286">
        <ele>940.30688476562</ele>
        <time>2012-06-16T11:00:49Z</time>
      </trkpt>
      <trkpt lat="43.78835" lon="7.13291">
        <ele>940.78735351562</ele>
        <time>2012-06-16T11:00:53Z</time>
      </trkpt>
      <trkpt lat="43.78822" lon="7.13306">
        <ele>941.26806640625</ele>
        <time>2012-06-16T11:01:05Z</time>
      </trkpt>
      <trkpt lat="43.78769" lon="7.13331">
        <ele>940.30688476562</ele>
        <time>2012-06-16T11:01:22Z</time>
      </trkpt>
      <trkpt lat="43.78753" lon="7.13332">
        <ele>938.86474609375</ele>
        <time>2012-06-16T11:01:26Z</time>
      </trkpt>
      <trkpt lat="43.7873" lon="7.13324">
        <ele>935.5</ele>
        <time>2012-06-16T11:01:33Z</time>
      </trkpt>
      <trkpt lat="43.78725" lon="7.13319">
        <ele>935.5</ele>
        <time>2012-06-16T11:01:35Z</time>
      </trkpt>
      <trkpt lat="43.78714" lon="7.13329">
        <ele>933.57739257812</ele>
        <time>2012-06-16T11:01:41Z</time>
      </trkpt>
      <trkpt lat="43.7869" lon="7.13321">
        <ele>932.13549804688</ele>
        <time>2012-06-16T11:01:52Z</time>
      </trkpt>
      <trkpt lat="43.78676" lon="7.13321">
        <ele>933.57739257812</ele>
        <time>2012-06-16T11:01:57Z</time>
      </trkpt>
      <trkpt lat="43.78612" lon="7.13325">
        <ele>933.57739257812</ele>
        <time>2012-06-16T11:02:17Z</time>
      </trkpt>
      <trkpt lat="43.7857" lon="7.13327">
        <ele>933.0966796875</ele>
        <time>2012-06-16T11:02:30Z</time>
      </trkpt>
      <trkpt lat="43.78526" lon="7.13335">
        <ele>932.13549804688</ele>
        <time>2012-06-16T11:02:44Z</time>
      </trkpt>
      <trkpt lat="43.78512" lon="7.13341">
        <ele>931.65478515625</ele>
        <time>2012-06-16T11:02:49Z</time>
      </trkpt>
      <trkpt lat="43.78498" lon="7.13346">
        <ele>931.65478515625</ele>
        <time>2012-06-16T11:02:55Z</time>
      </trkpt>
      <trkpt lat="43.78466" lon="7.13342">
        <ele>929.25146484375</ele>
        <time>2012-06-16T11:03:08Z</time>
      </trkpt>
      <trkpt lat="43.78444" lon="7.13345">
        <ele>929.73217773438</ele>
        <time>2012-06-16T11:03:18Z</time>
      </trkpt>
      <trkpt lat="43.78428" lon="7.13354">
        <ele>928.29028320312</ele>
        <time>2012-06-16T11:03:25Z</time>
      </trkpt>
      <trkpt lat="43.78401" lon="7.13385">
        <ele>928.77099609375</ele>
        <time>2012-06-16T11:03:38Z</time>
      </trkpt>
      <trkpt lat="43.78374" lon="7.134">
        <ele>927.3291015625</ele>
        <time>2012-06-16T11:03:52Z</time>
      </trkpt>
      <trkpt lat="43.78372" lon="7.13402">
        <ele>927.3291015625</ele>
        <time>2012-06-16T11:03:53Z</time>
      </trkpt>
      <trkpt lat="43.78338" lon="7.13407">
        <ele>925.88696289062</ele>
        <time>2012-06-16T11:04:05Z</time>
      </trkpt>
      <trkpt lat="43.7829" lon="7.13398">
        <ele>924.44506835938</ele>
        <time>2012-06-16T11:04:19Z</time>
      </trkpt>
      <trkpt lat="43.78261" lon="7.13393">
        <ele>923.48364257812</ele>
        <time>2012-06-16T11:04:29Z</time>
      </trkpt>
      <trkpt lat="43.78236" lon="7.13399">
        <ele>920.11889648438</ele>
        <time>2012-06-16T11:04:38Z</time>
      </trkpt>
      <trkpt lat="43.78228" lon="7.13401">
        <ele>920.11889648438</ele>
        <time>2012-06-16T11:04:41Z</time>
      </trkpt>
      <trkpt lat="43.78219" lon="7.13402">
        <ele>918.67700195312</ele>
        <time>2012-06-16T11:04:45Z</time>
      </trkpt>
      <trkpt lat="43.78206" lon="7.13405">
        <ele>917.23510742188</ele>
        <time>2012-06-16T11:04:50Z</time>
      </trkpt>
      <trkpt lat="43.78182" lon="7.13414">
        <ele>913.38989257812</ele>
        <time>2012-06-16T11:05:01Z</time>
      </trkpt>
      <trkpt lat="43.78154" lon="7.13431">
        <ele>910.02514648438</ele>
        <time>2012-06-16T11:05:12Z</time>
      </trkpt>
      <trkpt lat="43.78139" lon="7.13449">
        <ele>906.66040039062</ele>
        <time>2012-06-16T11:05:21Z</time>
      </trkpt>
      <trkpt lat="43.78142" lon="7.13465">
        <ele>906.1796875</ele>
        <time>2012-06-16T11:05:31Z</time>
      </trkpt>
      <trkpt lat="43.78142" lon="7.13465">
        <ele>906.1796875</ele>
        <time>2012-06-16T11:05:52Z</time>
      </trkpt>
      <trkpt lat="43.7814" lon="7.13465">
        <ele>905.69921875</ele>
        <time>2012-06-16T11:06:18Z</time>
      </trkpt>
      <trkpt lat="43.78131" lon="7.13462">
        <ele>903.77661132812</ele>
        <time>2012-06-16T11:06:24Z</time>
      </trkpt>
      <trkpt lat="43.78123" lon="7.13465">
        <ele>900.892578125</ele>
        <time>2012-06-16T11:06:34Z</time>
      </trkpt>
      <trkpt lat="43.78125" lon="7.13476">
        <ele>899.45068359375</ele>
        <time>2012-06-16T11:06:47Z</time>
      </trkpt>
      <trkpt lat="43.781" lon="7.13494">
        <ele>897.04736328125</ele>
        <time>2012-06-16T11:06:58Z</time>
      </trkpt>
      <trkpt lat="43.78069" lon="7.13513">
        <ele>896.56689453125</ele>
        <time>2012-06-16T11:07:10Z</time>
      </trkpt>
      <trkpt lat="43.78058" lon="7.13517">
        <ele>896.08618164062</ele>
        <time>2012-06-16T11:07:14Z</time>
      </trkpt>
      <trkpt lat="43.78044" lon="7.1351">
        <ele>895.60546875</ele>
        <time>2012-06-16T11:07:19Z</time>
      </trkpt>
      <trkpt lat="43.78019" lon="7.13511">
        <ele>893.2021484375</ele>
        <time>2012-06-16T11:07:27Z</time>
      </trkpt>
      <trkpt lat="43.78001" lon="7.13526">
        <ele>890.79858398438</ele>
        <time>2012-06-16T11:07:35Z</time>
      </trkpt>
      <trkpt lat="43.77987" lon="7.13537">
        <ele>889.35668945312</ele>
        <time>2012-06-16T11:07:40Z</time>
      </trkpt>
      <trkpt lat="43.77981" lon="7.13553">
        <ele>889.83740234375</ele>
        <time>2012-06-16T11:07:45Z</time>
      </trkpt>
      <trkpt lat="43.77967" lon="7.1357">
        <ele>888.3955078125</ele>
        <time>2012-06-16T11:07:57Z</time>
      </trkpt>
      <trkpt lat="43.77966" lon="7.13573">
        <ele>887.91479492188</ele>
        <time>2012-06-16T11:07:58Z</time>
      </trkpt>
      <trkpt lat="43.77955" lon="7.13594">
        <ele>888.3955078125</ele>
        <time>2012-06-16T11:08:08Z</time>
      </trkpt>
      <trkpt lat="43.77953" lon="7.13612">
        <ele>887.43408203125</ele>
        <time>2012-06-16T11:08:14Z</time>
      </trkpt>
      <trkpt lat="43.77953" lon="7.13628">
        <ele>885.9921875</ele>
        <time>2012-06-16T11:08:20Z</time>
      </trkpt>
      <trkpt lat="43.77957" lon="7.13636">
        <ele>885.9921875</ele>
        <time>2012-06-16T11:08:24Z</time>
      </trkpt>
      <trkpt lat="43.77959" lon="7.1364">
        <ele>885.51147460938</ele>
        <time>2012-06-16T11:08:26Z</time>
      </trkpt>
      <trkpt lat="43.77953" lon="7.13653">
        <ele>884.55029296875</ele>
        <time>2012-06-16T11:08:32Z</time>
      </trkpt>
      <trkpt lat="43.77952" lon="7.13656">
        <ele>884.55029296875</ele>
        <time>2012-06-16T11:08:34Z</time>
      </trkpt>
      <trkpt lat="43.77958" lon="7.1367">
        <ele>881.18579101562</ele>
        <time>2012-06-16T11:08:40Z</time>
      </trkpt>
      <trkpt lat="43.7796" lon="7.13679">
        <ele>879.26293945312</ele>
        <time>2012-06-16T11:08:49Z</time>
      </trkpt>
      <trkpt lat="43.77952" lon="7.13684">
        <ele>877.34057617188</ele>
        <time>2012-06-16T11:09:05Z</time>
      </trkpt>
      <trkpt lat="43.77922" lon="7.13667">
        <ele>876.85986328125</ele>
        <time>2012-06-16T11:09:16Z</time>
      </trkpt>
      <trkpt lat="43.77912" lon="7.13665">
        <ele>875.41748046875</ele>
        <time>2012-06-16T11:09:19Z</time>
      </trkpt>
      <trkpt lat="43.77885" lon="7.13671">
        <ele>874.45629882812</ele>
        <time>2012-06-16T11:09:30Z</time>
      </trkpt>
      <trkpt lat="43.77867" lon="7.13673">
        <ele>873.9755859375</ele>
        <time>2012-06-16T11:09:36Z</time>
      </trkpt>
      <trkpt lat="43.7785" lon="7.13676">
        <ele>872.53369140625</ele>
        <time>2012-06-16T11:09:42Z</time>
      </trkpt>
      <trkpt lat="43.77838" lon="7.13673">
        <ele>872.53369140625</ele>
        <time>2012-06-16T11:09:48Z</time>
      </trkpt>
      <trkpt lat="43.77826" lon="7.13651">
        <ele>870.61108398438</ele>
        <time>2012-06-16T11:09:59Z</time>
      </trkpt>
      <trkpt lat="43.77819" lon="7.13652">
        <ele>868.6884765625</ele>
        <time>2012-06-16T11:10:02Z</time>
      </trkpt>
      <trkpt lat="43.77816" lon="7.13653">
        <ele>868.6884765625</ele>
        <time>2012-06-16T11:10:03Z</time>
      </trkpt>
      <trkpt lat="43.77809" lon="7.13657">
        <ele>867.72705078125</ele>
        <time>2012-06-16T11:10:14Z</time>
      </trkpt>
      <trkpt lat="43.77798" lon="7.13663">
        <ele>867.72705078125</ele>
        <time>2012-06-16T11:11:11Z</time>
      </trkpt>
      <trkpt lat="43.77774" lon="7.13661">
        <ele>865.8046875</ele>
        <time>2012-06-16T11:11:22Z</time>
      </trkpt>
      <trkpt lat="43.77766" lon="7.13665">
        <ele>864.36254882812</ele>
        <time>2012-06-16T11:11:26Z</time>
      </trkpt>
      <trkpt lat="43.77754" lon="7.13683">
        <ele>861.47875976562</ele>
        <time>2012-06-16T11:11:35Z</time>
      </trkpt>
      <trkpt lat="43.7775" lon="7.13686">
        <ele>860.998046875</ele>
        <time>2012-06-16T11:11:37Z</time>
      </trkpt>
      <trkpt lat="43.77748" lon="7.13686">
        <ele>861.47875976562</ele>
        <time>2012-06-16T11:11:38Z</time>
      </trkpt>
      <trkpt lat="43.77741" lon="7.13687">
        <ele>860.03662109375</ele>
        <time>2012-06-16T11:11:41Z</time>
      </trkpt>
      <trkpt lat="43.77738" lon="7.13696">
        <ele>858.59448242188</ele>
        <time>2012-06-16T11:11:44Z</time>
      </trkpt>
      <trkpt lat="43.77735" lon="7.13719">
        <ele>857.15258789062</ele>
        <time>2012-06-16T11:11:50Z</time>
      </trkpt>
      <trkpt lat="43.77713" lon="7.13751">
        <ele>854.26879882812</ele>
        <time>2012-06-16T11:12:03Z</time>
      </trkpt>
      <trkpt lat="43.77691" lon="7.13771">
        <ele>853.7880859375</ele>
        <time>2012-06-16T11:12:12Z</time>
      </trkpt>
      <trkpt lat="43.77658" lon="7.13793">
        <ele>850.42358398438</ele>
        <time>2012-06-16T11:12:24Z</time>
      </trkpt>
      <trkpt lat="43.77653" lon="7.13799">
        <ele>849.94287109375</ele>
        <time>2012-06-16T11:12:26Z</time>
      </trkpt>
      <trkpt lat="43.77645" lon="7.13813">
        <ele>848.50073242188</ele>
        <time>2012-06-16T11:12:31Z</time>
      </trkpt>
      <trkpt lat="43.77643" lon="7.13805">
        <ele>846.09765625</ele>
        <time>2012-06-16T11:12:40Z</time>
      </trkpt>
      <trkpt lat="43.77632" lon="7.13813">
        <ele>843.69409179688</ele>
        <time>2012-06-16T11:12:46Z</time>
      </trkpt>
      <trkpt lat="43.7763" lon="7.13815">
        <ele>843.21337890625</ele>
        <time>2012-06-16T11:12:47Z</time>
      </trkpt>
      <trkpt lat="43.7761" lon="7.13832">
        <ele>840.32958984375</ele>
        <time>2012-06-16T11:12:58Z</time>
      </trkpt>
      <trkpt lat="43.77603" lon="7.13838">
        <ele>836.00366210938</ele>
        <time>2012-06-16T11:13:02Z</time>
      </trkpt>
      <trkpt lat="43.77601" lon="7.13839">
        <ele>836.484375</ele>
        <time>2012-06-16T11:13:03Z</time>
      </trkpt>
      <trkpt lat="43.77575" lon="7.13847">
        <ele>834.0810546875</ele>
        <time>2012-06-16T11:13:14Z</time>
      </trkpt>
      <trkpt lat="43.7757" lon="7.13848">
        <ele>833.11962890625</ele>
        <time>2012-06-16T11:13:20Z</time>
      </trkpt>
      <trkpt lat="43.77571" lon="7.13841">
        <ele>832.63916015625</ele>
        <time>2012-06-16T11:13:24Z</time>
      </trkpt>
      <trkpt lat="43.77563" lon="7.13842">
        <ele>831.197265625</ele>
        <time>2012-06-16T11:13:30Z</time>
      </trkpt>
      <trkpt lat="43.77547" lon="7.13853">
        <ele>826.87109375</ele>
        <time>2012-06-16T11:13:38Z</time>
      </trkpt>
      <trkpt lat="43.77537" lon="7.13861">
        <ele>825.42895507812</ele>
        <time>2012-06-16T11:13:43Z</time>
      </trkpt>
      <trkpt lat="43.77534" lon="7.13866">
        <ele>823.98706054688</ele>
        <time>2012-06-16T11:13:45Z</time>
      </trkpt>
      <trkpt lat="43.77532" lon="7.1387">
        <ele>822.54516601562</ele>
        <time>2012-06-16T11:13:47Z</time>
      </trkpt>
      <trkpt lat="43.77528" lon="7.1388">
        <ele>821.10327148438</ele>
        <time>2012-06-16T11:13:52Z</time>
      </trkpt>
      <trkpt lat="43.77524" lon="7.13876">
        <ele>819.1806640625</ele>
        <time>2012-06-16T11:13:57Z</time>
      </trkpt>
      <trkpt lat="43.77522" lon="7.13857">
        <ele>818.21923828125</ele>
        <time>2012-06-16T11:14:07Z</time>
      </trkpt>
      <trkpt lat="43.77522" lon="7.13845">
        <ele>818.69995117188</ele>
        <time>2012-06-16T11:14:11Z</time>
      </trkpt>
      <trkpt lat="43.77514" lon="7.13846">
        <ele>814.85473632812</ele>
        <time>2012-06-16T11:14:16Z</time>
      </trkpt>
      <trkpt lat="43.77512" lon="7.13849">
        <ele>815.33544921875</ele>
        <time>2012-06-16T11:14:17Z</time>
      </trkpt>
      <trkpt lat="43.77505" lon="7.13864">
        <ele>811.970703125</ele>
        <time>2012-06-16T11:14:21Z</time>
      </trkpt>
      <trkpt lat="43.77504" lon="7.13872">
        <ele>811.00927734375</ele>
        <time>2012-06-16T11:14:23Z</time>
      </trkpt>
      <trkpt lat="43.77496" lon="7.13884">
        <ele>809.5673828125</ele>
        <time>2012-06-16T11:14:27Z</time>
      </trkpt>
      <trkpt lat="43.77468" lon="7.1389">
        <ele>805.72216796875</ele>
        <time>2012-06-16T11:14:34Z</time>
      </trkpt>
      <trkpt lat="43.7746" lon="7.13904">
        <ele>804.7607421875</ele>
        <time>2012-06-16T11:14:37Z</time>
      </trkpt>
      <trkpt lat="43.77463" lon="7.13928">
        <ele>803.31884765625</ele>
        <time>2012-06-16T11:14:41Z</time>
      </trkpt>
      <trkpt lat="43.7747" lon="7.13944">
        <ele>802.357421875</ele>
        <time>2012-06-16T11:14:44Z</time>
      </trkpt>
      <trkpt lat="43.77473" lon="7.1398">
        <ele>801.876953125</ele>
        <time>2012-06-16T11:14:48Z</time>
      </trkpt>
      <trkpt lat="43.77449" lon="7.13957">
        <ele>799.95434570312</ele>
        <time>2012-06-16T11:14:52Z</time>
      </trkpt>
      <trkpt lat="43.77444" lon="7.13965">
        <ele>798.99291992188</ele>
        <time>2012-06-16T11:14:54Z</time>
      </trkpt>
      <trkpt lat="43.77439" lon="7.13984">
        <ele>798.51220703125</ele>
        <time>2012-06-16T11:14:57Z</time>
      </trkpt>
      <trkpt lat="43.77422" lon="7.14">
        <ele>798.03173828125</ele>
        <time>2012-06-16T11:15:02Z</time>
      </trkpt>
      <trkpt lat="43.77414" lon="7.14007">
        <ele>797.0703125</ele>
        <time>2012-06-16T11:15:04Z</time>
      </trkpt>
      <trkpt lat="43.77397" lon="7.14012">
        <ele>796.10913085938</ele>
        <time>2012-06-16T11:15:08Z</time>
      </trkpt>
      <trkpt lat="43.77388" lon="7.1401">
        <ele>796.10913085938</ele>
        <time>2012-06-16T11:15:10Z</time>
      </trkpt>
      <trkpt lat="43.77371" lon="7.14016">
        <ele>793.70556640625</ele>
        <time>2012-06-16T11:15:14Z</time>
      </trkpt>
      <trkpt lat="43.77357" lon="7.14041">
        <ele>792.263671875</ele>
        <time>2012-06-16T11:15:20Z</time>
      </trkpt>
      <trkpt lat="43.77328" lon="7.14052">
        <ele>786.97631835938</ele>
        <time>2012-06-16T11:15:27Z</time>
      </trkpt>
      <trkpt lat="43.77319" lon="7.14057">
        <ele>786.49584960938</ele>
        <time>2012-06-16T11:15:29Z</time>
      </trkpt>
      <trkpt lat="43.77304" lon="7.14071">
        <ele>784.5732421875</ele>
        <time>2012-06-16T11:15:33Z</time>
      </trkpt>
      <trkpt lat="43.77295" lon="7.14083">
        <ele>784.5732421875</ele>
        <time>2012-06-16T11:15:36Z</time>
      </trkpt>
      <trkpt lat="43.77278" lon="7.14119">
        <ele>780.24731445312</ele>
        <time>2012-06-16T11:15:43Z</time>
      </trkpt>
      <trkpt lat="43.7727" lon="7.14135">
        <ele>779.28564453125</ele>
        <time>2012-06-16T11:15:46Z</time>
      </trkpt>
      <trkpt lat="43.77254" lon="7.14162">
        <ele>778.32446289062</ele>
        <time>2012-06-16T11:15:51Z</time>
      </trkpt>
      <trkpt lat="43.77242" lon="7.14177">
        <ele>776.88256835938</ele>
        <time>2012-06-16T11:15:55Z</time>
      </trkpt>
      <trkpt lat="43.77245" lon="7.14198">
        <ele>773.99853515625</ele>
        <time>2012-06-16T11:15:59Z</time>
      </trkpt>
      <trkpt lat="43.7723" lon="7.14233">
        <ele>771.11474609375</ele>
        <time>2012-06-16T11:16:06Z</time>
      </trkpt>
      <trkpt lat="43.77215" lon="7.1425">
        <ele>770.63403320312</ele>
        <time>2012-06-16T11:16:10Z</time>
      </trkpt>
      <trkpt lat="43.77206" lon="7.14257">
        <ele>770.63403320312</ele>
        <time>2012-06-16T11:16:12Z</time>
      </trkpt>
      <trkpt lat="43.77181" lon="7.1428">
        <ele>769.6728515625</ele>
        <time>2012-06-16T11:16:18Z</time>
      </trkpt>
      <trkpt lat="43.77157" lon="7.14316">
        <ele>768.71142578125</ele>
        <time>2012-06-16T11:16:26Z</time>
      </trkpt>
      <trkpt lat="43.7714" lon="7.14337">
        <ele>768.71142578125</ele>
        <time>2012-06-16T11:16:32Z</time>
      </trkpt>
      <trkpt lat="43.77096" lon="7.14392">
        <ele>765.34692382812</ele>
        <time>2012-06-16T11:16:45Z</time>
      </trkpt>
      <trkpt lat="43.77068" lon="7.14406">
        <ele>764.38549804688</ele>
        <time>2012-06-16T11:16:52Z</time>
      </trkpt>
      <trkpt lat="43.77052" lon="7.14422">
        <ele>762.943359375</ele>
        <time>2012-06-16T11:16:57Z</time>
      </trkpt>
      <trkpt lat="43.77038" lon="7.14433">
        <ele>762.46264648438</ele>
        <time>2012-06-16T11:17:01Z</time>
      </trkpt>
      <trkpt lat="43.77024" lon="7.14445">
        <ele>761.50146484375</ele>
        <time>2012-06-16T11:17:05Z</time>
      </trkpt>
      <trkpt lat="43.77003" lon="7.14459">
        <ele>760.05932617188</ele>
        <time>2012-06-16T11:17:11Z</time>
      </trkpt>
      <trkpt lat="43.76991" lon="7.14467">
        <ele>759.09814453125</ele>
        <time>2012-06-16T11:17:15Z</time>
      </trkpt>
      <trkpt lat="43.76948" lon="7.14474">
        <ele>756.69482421875</ele>
        <time>2012-06-16T11:17:25Z</time>
      </trkpt>
      <trkpt lat="43.76928" lon="7.14482">
        <ele>753.33032226562</ele>
        <time>2012-06-16T11:17:30Z</time>
      </trkpt>
      <trkpt lat="43.76895" lon="7.14488">
        <ele>751.88842773438</ele>
        <time>2012-06-16T11:17:37Z</time>
      </trkpt>
      <trkpt lat="43.76864" lon="7.14487">
        <ele>749.00439453125</ele>
        <time>2012-06-16T11:17:44Z</time>
      </trkpt>
      <trkpt lat="43.76832" lon="7.14482">
        <ele>745.15893554688</ele>
        <time>2012-06-16T11:17:52Z</time>
      </trkpt>
      <trkpt lat="43.76816" lon="7.1448">
        <ele>743.236328125</ele>
        <time>2012-06-16T11:17:57Z</time>
      </trkpt>
      <trkpt lat="43.76806" lon="7.14479">
        <ele>741.79443359375</ele>
        <time>2012-06-16T11:18:00Z</time>
      </trkpt>
      <trkpt lat="43.76783" lon="7.14474">
        <ele>738.42993164062</ele>
        <time>2012-06-16T11:18:07Z</time>
      </trkpt>
      <trkpt lat="43.7678" lon="7.14472">
        <ele>737.94921875</ele>
        <time>2012-06-16T11:18:08Z</time>
      </trkpt>
      <trkpt lat="43.76757" lon="7.14461">
        <ele>734.10400390625</ele>
        <time>2012-06-16T11:18:15Z</time>
      </trkpt>
      <trkpt lat="43.76747" lon="7.14471">
        <ele>732.18139648438</ele>
        <time>2012-06-16T11:18:19Z</time>
      </trkpt>
      <trkpt lat="43.76745" lon="7.14471">
        <ele>732.18139648438</ele>
        <time>2012-06-16T11:18:31Z</time>
      </trkpt>
      <trkpt lat="43.76745" lon="7.14471">
        <ele>731.70043945312</ele>
        <time>2012-06-16T11:18:57Z</time>
      </trkpt>
      <trkpt lat="43.76711" lon="7.14454">
        <ele>728.3359375</ele>
        <time>2012-06-16T11:19:10Z</time>
      </trkpt>
      <trkpt lat="43.76705" lon="7.14453">
        <ele>727.37475585938</ele>
        <time>2012-06-16T11:19:12Z</time>
      </trkpt>
      <trkpt lat="43.76683" lon="7.14445">
        <ele>724.01000976562</ele>
        <time>2012-06-16T11:19:20Z</time>
      </trkpt>
      <trkpt lat="43.76652" lon="7.14438">
        <ele>721.12622070312</ele>
        <time>2012-06-16T11:19:30Z</time>
      </trkpt>
      <trkpt lat="43.76635" lon="7.14435">
        <ele>718.72290039062</ele>
        <time>2012-06-16T11:19:35Z</time>
      </trkpt>
      <trkpt lat="43.76613" lon="7.14435">
        <ele>715.35815429688</ele>
        <time>2012-06-16T11:19:41Z</time>
      </trkpt>
      <trkpt lat="43.76581" lon="7.1444">
        <ele>711.99365234375</ele>
        <time>2012-06-16T11:19:48Z</time>
      </trkpt>
      <trkpt lat="43.76545" lon="7.1444">
        <ele>710.55151367188</ele>
        <time>2012-06-16T11:19:55Z</time>
      </trkpt>
      <trkpt lat="43.76536" lon="7.14441">
        <ele>709.10961914062</ele>
        <time>2012-06-16T11:19:57Z</time>
      </trkpt>
      <trkpt lat="43.76528" lon="7.14444">
        <ele>708.62890625</ele>
        <time>2012-06-16T11:19:59Z</time>
      </trkpt>
      <trkpt lat="43.76502" lon="7.14456">
        <ele>705.7451171875</ele>
        <time>2012-06-16T11:20:06Z</time>
      </trkpt>
      <trkpt lat="43.76484" lon="7.14462">
        <ele>702.38037109375</ele>
        <time>2012-06-16T11:20:11Z</time>
      </trkpt>
      <trkpt lat="43.76462" lon="7.14465">
        <ele>700.9384765625</ele>
        <time>2012-06-16T11:20:16Z</time>
      </trkpt>
      <trkpt lat="43.76439" lon="7.1446">
        <ele>697.57373046875</ele>
        <time>2012-06-16T11:20:21Z</time>
      </trkpt>
      <trkpt lat="43.76424" lon="7.14452">
        <ele>696.1318359375</ele>
        <time>2012-06-16T11:20:25Z</time>
      </trkpt>
      <trkpt lat="43.76395" lon="7.14454">
        <ele>693.728515625</ele>
        <time>2012-06-16T11:20:31Z</time>
      </trkpt>
      <trkpt lat="43.76375" lon="7.14449">
        <ele>691.3251953125</ele>
        <time>2012-06-16T11:20:35Z</time>
      </trkpt>
      <trkpt lat="43.76338" lon="7.14457">
        <ele>689.40258789062</ele>
        <time>2012-06-16T11:20:43Z</time>
      </trkpt>
      <trkpt lat="43.76315" lon="7.14457">
        <ele>688.92211914062</ele>
        <time>2012-06-16T11:20:48Z</time>
      </trkpt>
      <trkpt lat="43.76281" lon="7.14444">
        <ele>687.96069335938</ele>
        <time>2012-06-16T11:20:55Z</time>
      </trkpt>
      <trkpt lat="43.76271" lon="7.1444">
        <ele>686.51879882812</ele>
        <time>2012-06-16T11:20:57Z</time>
      </trkpt>
      <trkpt lat="43.76243" lon="7.14435">
        <ele>684.59619140625</ele>
        <time>2012-06-16T11:21:02Z</time>
      </trkpt>
      <trkpt lat="43.76213" lon="7.14422">
        <ele>683.63452148438</ele>
        <time>2012-06-16T11:21:08Z</time>
      </trkpt>
      <trkpt lat="43.76197" lon="7.14418">
        <ele>682.19262695312</ele>
        <time>2012-06-16T11:21:11Z</time>
      </trkpt>
      <trkpt lat="43.7618" lon="7.14417">
        <ele>681.7119140625</ele>
        <time>2012-06-16T11:21:14Z</time>
      </trkpt>
      <trkpt lat="43.76155" lon="7.1441">
        <ele>680.75073242188</ele>
        <time>2012-06-16T11:21:19Z</time>
      </trkpt>
      <trkpt lat="43.76136" lon="7.14396">
        <ele>678.828125</ele>
        <time>2012-06-16T11:21:24Z</time>
      </trkpt>
      <trkpt lat="43.76112" lon="7.14382">
        <ele>677.86669921875</ele>
        <time>2012-06-16T11:21:29Z</time>
      </trkpt>
      <trkpt lat="43.76107" lon="7.14381">
        <ele>677.38623046875</ele>
        <time>2012-06-16T11:21:30Z</time>
      </trkpt>
      <trkpt lat="43.76089" lon="7.14365">
        <ele>675.94409179688</ele>
        <time>2012-06-16T11:21:34Z</time>
      </trkpt>
      <trkpt lat="43.76064" lon="7.14347">
        <ele>673.06030273438</ele>
        <time>2012-06-16T11:21:39Z</time>
      </trkpt>
      <trkpt lat="43.76059" lon="7.14344">
        <ele>673.06030273438</ele>
        <time>2012-06-16T11:21:40Z</time>
      </trkpt>
      <trkpt lat="43.76024" lon="7.1432">
        <ele>669.69580078125</ele>
        <time>2012-06-16T11:21:47Z</time>
      </trkpt>
      <trkpt lat="43.75995" lon="7.14314">
        <ele>668.25366210938</ele>
        <time>2012-06-16T11:21:53Z</time>
      </trkpt>
      <trkpt lat="43.75963" lon="7.14311">
        <ele>666.8115234375</ele>
        <time>2012-06-16T11:22:00Z</time>
      </trkpt>
      <trkpt lat="43.75947" lon="7.14312">
        <ele>663.92749023438</ele>
        <time>2012-06-16T11:22:04Z</time>
      </trkpt>
      <trkpt lat="43.75937" lon="7.14313">
        <ele>662.96630859375</ele>
        <time>2012-06-16T11:22:07Z</time>
      </trkpt>
      <trkpt lat="43.75899" lon="7.14304">
        <ele>658.15991210938</ele>
        <time>2012-06-16T11:22:18Z</time>
      </trkpt>
      <trkpt lat="43.75886" lon="7.14295">
        <ele>659.12109375</ele>
        <time>2012-06-16T11:22:22Z</time>
      </trkpt>
      <trkpt lat="43.75841" lon="7.14303">
        <ele>657.67919921875</ele>
        <time>2012-06-16T11:22:34Z</time>
      </trkpt>
      <trkpt lat="43.75836" lon="7.14304">
        <ele>655.75659179688</ele>
        <time>2012-06-16T11:22:35Z</time>
      </trkpt>
      <trkpt lat="43.75811" lon="7.14313">
        <ele>654.79516601562</ele>
        <time>2012-06-16T11:22:39Z</time>
      </trkpt>
      <trkpt lat="43.75785" lon="7.14329">
        <ele>652.87255859375</ele>
        <time>2012-06-16T11:22:44Z</time>
      </trkpt>
      <trkpt lat="43.75771" lon="7.14332">
        <ele>651.43041992188</ele>
        <time>2012-06-16T11:22:47Z</time>
      </trkpt>
      <trkpt lat="43.75729" lon="7.14327">
        <ele>649.02709960938</ele>
        <time>2012-06-16T11:23:00Z</time>
      </trkpt>
      <trkpt lat="43.75725" lon="7.14326">
        <ele>648.06591796875</ele>
        <time>2012-06-16T11:23:34Z</time>
      </trkpt>
      <trkpt lat="43.75693" lon="7.14313">
        <ele>644.701171875</ele>
        <time>2012-06-16T11:23:46Z</time>
      </trkpt>
      <trkpt lat="43.75688" lon="7.14313">
        <ele>643.73999023438</ele>
        <time>2012-06-16T11:23:48Z</time>
      </trkpt>
      <trkpt lat="43.75669" lon="7.14317">
        <ele>640.37548828125</ele>
        <time>2012-06-16T11:23:55Z</time>
      </trkpt>
      <trkpt lat="43.75654" lon="7.14319">
        <ele>637.97216796875</ele>
        <time>2012-06-16T11:24:00Z</time>
      </trkpt>
      <trkpt lat="43.75637" lon="7.14321">
        <ele>634.607421875</ele>
        <time>2012-06-16T11:24:06Z</time>
      </trkpt>
      <trkpt lat="43.75623" lon="7.14325">
        <ele>631.24291992188</ele>
        <time>2012-06-16T11:24:11Z</time>
      </trkpt>
      <trkpt lat="43.75604" lon="7.1433">
        <ele>628.35888671875</ele>
        <time>2012-06-16T11:24:18Z</time>
      </trkpt>
      <trkpt lat="43.75588" lon="7.14332">
        <ele>624.99438476562</ele>
        <time>2012-06-16T11:24:24Z</time>
      </trkpt>
      <trkpt lat="43.75585" lon="7.14332">
        <ele>624.513671875</ele>
        <time>2012-06-16T11:24:25Z</time>
      </trkpt>
      <trkpt lat="43.75568" lon="7.14332">
        <ele>621.62963867188</ele>
        <time>2012-06-16T11:24:31Z</time>
      </trkpt>
      <trkpt lat="43.75535" lon="7.14332">
        <ele>618.26489257812</ele>
        <time>2012-06-16T11:24:42Z</time>
      </trkpt>
      <trkpt lat="43.75528" lon="7.14337">
        <ele>616.34228515625</ele>
        <time>2012-06-16T11:24:45Z</time>
      </trkpt>
      <trkpt lat="43.75513" lon="7.14334">
        <ele>612.97778320312</ele>
        <time>2012-06-16T11:24:51Z</time>
      </trkpt>
      <trkpt lat="43.75487" lon="7.14326">
        <ele>609.13256835938</ele>
        <time>2012-06-16T11:25:01Z</time>
      </trkpt>
      <trkpt lat="43.75471" lon="7.14321">
        <ele>606.72924804688</ele>
        <time>2012-06-16T11:25:07Z</time>
      </trkpt>
      <trkpt lat="43.75438" lon="7.14299">
        <ele>603.36450195312</ele>
        <time>2012-06-16T11:25:19Z</time>
      </trkpt>
      <trkpt lat="43.75434" lon="7.14295">
        <ele>601.92260742188</ele>
        <time>2012-06-16T11:25:21Z</time>
      </trkpt>
      <trkpt lat="43.75413" lon="7.14283">
        <ele>598.55786132812</ele>
        <time>2012-06-16T11:25:28Z</time>
      </trkpt>
      <trkpt lat="43.75392" lon="7.14269">
        <ele>595.67407226562</ele>
        <time>2012-06-16T11:25:36Z</time>
      </trkpt>
      <trkpt lat="43.75389" lon="7.14268">
        <ele>595.193359375</ele>
        <time>2012-06-16T11:25:37Z</time>
      </trkpt>
      <trkpt lat="43.75374" lon="7.14266">
        <ele>591.82885742188</ele>
        <time>2012-06-16T11:25:42Z</time>
      </trkpt>
      <trkpt lat="43.75372" lon="7.14266">
        <ele>591.82885742188</ele>
        <time>2012-06-16T11:25:43Z</time>
      </trkpt>
      <trkpt lat="43.75364" lon="7.14264">
        <ele>588.94506835938</ele>
        <time>2012-06-16T11:25:46Z</time>
      </trkpt>
      <trkpt lat="43.75357" lon="7.14264">
        <ele>587.50268554688</ele>
        <time>2012-06-16T11:25:50Z</time>
      </trkpt>
      <trkpt lat="43.75361" lon="7.14281">
        <ele>584.61889648438</ele>
        <time>2012-06-16T11:25:57Z</time>
      </trkpt>
      <trkpt lat="43.75375" lon="7.14293">
        <ele>581.73486328125</ele>
        <time>2012-06-16T11:26:03Z</time>
      </trkpt>
      <trkpt lat="43.75386" lon="7.14299">
        <ele>579.81225585938</ele>
        <time>2012-06-16T11:26:08Z</time>
      </trkpt>
      <trkpt lat="43.7538" lon="7.14304">
        <ele>577.4091796875</ele>
        <time>2012-06-16T11:26:14Z</time>
      </trkpt>
      <trkpt lat="43.7537" lon="7.14301">
        <ele>575.486328125</ele>
        <time>2012-06-16T11:26:18Z</time>
      </trkpt>
      <trkpt lat="43.75363" lon="7.14297">
        <ele>574.04443359375</ele>
        <time>2012-06-16T11:26:21Z</time>
      </trkpt>
      <trkpt lat="43.75352" lon="7.14292">
        <ele>571.16040039062</ele>
        <time>2012-06-16T11:26:26Z</time>
      </trkpt>
      <trkpt lat="43.75334" lon="7.14285">
        <ele>568.2763671875</ele>
        <time>2012-06-16T11:26:33Z</time>
      </trkpt>
      <trkpt lat="43.75303" lon="7.14265">
        <ele>564.91186523438</ele>
        <time>2012-06-16T11:26:43Z</time>
      </trkpt>
      <trkpt lat="43.75278" lon="7.14253">
        <ele>561.54736328125</ele>
        <time>2012-06-16T11:26:51Z</time>
      </trkpt>
      <trkpt lat="43.75272" lon="7.14253">
        <ele>560.5859375</ele>
        <time>2012-06-16T11:26:53Z</time>
      </trkpt>
      <trkpt lat="43.75252" lon="7.1425">
        <ele>557.22143554688</ele>
        <time>2012-06-16T11:27:00Z</time>
      </trkpt>
      <trkpt lat="43.75234" lon="7.14245">
        <ele>553.85668945312</ele>
        <time>2012-06-16T11:27:06Z</time>
      </trkpt>
      <trkpt lat="43.75214" lon="7.14242">
        <ele>549.53076171875</ele>
        <time>2012-06-16T11:27:13Z</time>
      </trkpt>
      <trkpt lat="43.7521" lon="7.14241">
        <ele>550.01147460938</ele>
        <time>2012-06-16T11:27:14Z</time>
      </trkpt>
      <trkpt lat="43.75188" lon="7.14218">
        <ele>546.64685058594</ele>
        <time>2012-06-16T11:27:21Z</time>
      </trkpt>
      <trkpt lat="43.75176" lon="7.14214">
        <ele>545.20483398438</ele>
        <time>2012-06-16T11:27:24Z</time>
      </trkpt>
      <trkpt lat="43.75165" lon="7.14208">
        <ele>543.76281738281</ele>
        <time>2012-06-16T11:27:27Z</time>
      </trkpt>
      <trkpt lat="43.7516" lon="7.14205">
        <ele>543.28210449219</ele>
        <time>2012-06-16T11:27:28Z</time>
      </trkpt>
      <trkpt lat="43.75146" lon="7.14196">
        <ele>542.80151367188</ele>
        <time>2012-06-16T11:27:31Z</time>
      </trkpt>
      <trkpt lat="43.75121" lon="7.14185">
        <ele>540.39831542969</ele>
        <time>2012-06-16T11:27:38Z</time>
      </trkpt>
      <trkpt lat="43.75111" lon="7.14181">
        <ele>538.47570800781</ele>
        <time>2012-06-16T11:27:41Z</time>
      </trkpt>
      <trkpt lat="43.75097" lon="7.1418">
        <ele>536.55310058594</ele>
        <time>2012-06-16T11:27:45Z</time>
      </trkpt>
      <trkpt lat="43.75076" lon="7.14172">
        <ele>532.70776367188</ele>
        <time>2012-06-16T11:27:51Z</time>
      </trkpt>
      <trkpt lat="43.75058" lon="7.14167">
        <ele>529.82373046875</ele>
        <time>2012-06-16T11:27:56Z</time>
      </trkpt>
      <trkpt lat="43.75052" lon="7.14167">
        <ele>528.86254882812</ele>
        <time>2012-06-16T11:27:58Z</time>
      </trkpt>
      <trkpt lat="43.75047" lon="7.14167">
        <ele>526.45910644531</ele>
        <time>2012-06-16T11:28:07Z</time>
      </trkpt>
      <trkpt lat="43.75031" lon="7.1416">
        <ele>524.05578613281</ele>
        <time>2012-06-16T11:29:15Z</time>
      </trkpt>
      <trkpt lat="43.75016" lon="7.14151">
        <ele>521.17199707031</ele>
        <time>2012-06-16T11:29:19Z</time>
      </trkpt>
      <trkpt lat="43.74997" lon="7.14148">
        <ele>517.32666015625</ele>
        <time>2012-06-16T11:29:23Z</time>
      </trkpt>
      <trkpt lat="43.74984" lon="7.14148">
        <ele>514.44262695312</ele>
        <time>2012-06-16T11:29:26Z</time>
      </trkpt>
      <trkpt lat="43.74972" lon="7.14152">
        <ele>512.52001953125</ele>
        <time>2012-06-16T11:29:29Z</time>
      </trkpt>
      <trkpt lat="43.74957" lon="7.14156">
        <ele>509.63610839844</ele>
        <time>2012-06-16T11:29:33Z</time>
      </trkpt>
      <trkpt lat="43.74945" lon="7.14165">
        <ele>507.23278808594</ele>
        <time>2012-06-16T11:29:38Z</time>
      </trkpt>
      <trkpt lat="43.74941" lon="7.14169">
        <ele>505.79089355469</ele>
        <time>2012-06-16T11:29:40Z</time>
      </trkpt>
      <trkpt lat="43.74937" lon="7.14174">
        <ele>504.34887695312</ele>
        <time>2012-06-16T11:29:43Z</time>
      </trkpt>
      <trkpt lat="43.74933" lon="7.14184">
        <ele>500.98413085938</ele>
        <time>2012-06-16T11:29:47Z</time>
      </trkpt>
      <trkpt lat="43.7493" lon="7.14189">
        <ele>500.02294921875</ele>
        <time>2012-06-16T11:29:49Z</time>
      </trkpt>
      <trkpt lat="43.7492" lon="7.14189">
        <ele>498.10034179688</ele>
        <time>2012-06-16T11:29:54Z</time>
      </trkpt>
      <trkpt lat="43.74923" lon="7.14199">
        <ele>495.69689941406</ele>
        <time>2012-06-16T11:29:59Z</time>
      </trkpt>
      <trkpt lat="43.74925" lon="7.14199">
        <ele>495.21618652344</ele>
        <time>2012-06-16T11:30:00Z</time>
      </trkpt>
      <trkpt lat="43.74928" lon="7.14199">
        <ele>493.77429199219</ele>
        <time>2012-06-16T11:30:13Z</time>
      </trkpt>
      <trkpt lat="43.74928" lon="7.14199">
        <ele>493.29357910156</ele>
        <time>2012-06-16T11:30:38Z</time>
      </trkpt>
      <trkpt lat="43.74928" lon="7.14199">
        <ele>493.29357910156</ele>
        <time>2012-06-16T11:30:47Z</time>
      </trkpt>
      <trkpt lat="43.74923" lon="7.14199">
        <ele>493.29357910156</ele>
        <time>2012-06-16T11:30:51Z</time>
      </trkpt>
      <trkpt lat="43.74918" lon="7.14194">
        <ele>491.37097167969</ele>
        <time>2012-06-16T11:30:54Z</time>
      </trkpt>
      <trkpt lat="43.74917" lon="7.14193">
        <ele>488.48718261719</ele>
        <time>2012-06-16T11:30:58Z</time>
      </trkpt>
      <trkpt lat="43.74904" lon="7.14204">
        <ele>484.64184570312</ele>
        <time>2012-06-16T11:31:03Z</time>
      </trkpt>
      <trkpt lat="43.7489" lon="7.14222">
        <ele>481.27722167969</ele>
        <time>2012-06-16T11:31:08Z</time>
      </trkpt>
      <trkpt lat="43.74881" lon="7.14223">
        <ele>479.83508300781</ele>
        <time>2012-06-16T11:31:10Z</time>
      </trkpt>
      <trkpt lat="43.74873" lon="7.14225">
        <ele>477.91247558594</ele>
        <time>2012-06-16T11:31:12Z</time>
      </trkpt>
      <trkpt lat="43.74845" lon="7.14225">
        <ele>473.58666992188</ele>
        <time>2012-06-16T11:31:18Z</time>
      </trkpt>
      <trkpt lat="43.74837" lon="7.14227">
        <ele>471.66394042969</ele>
        <time>2012-06-16T11:31:20Z</time>
      </trkpt>
      <trkpt lat="43.74817" lon="7.14231">
        <ele>467.81872558594</ele>
        <time>2012-06-16T11:31:24Z</time>
      </trkpt>
      <trkpt lat="43.74804" lon="7.14231">
        <ele>466.37670898438</ele>
        <time>2012-06-16T11:31:27Z</time>
      </trkpt>
      <trkpt lat="43.74784" lon="7.14244">
        <ele>463.49279785156</ele>
        <time>2012-06-16T11:31:37Z</time>
      </trkpt>
      <trkpt lat="43.74778" lon="7.14249">
        <ele>462.05078125</ele>
        <time>2012-06-16T11:31:40Z</time>
      </trkpt>
      <trkpt lat="43.74768" lon="7.1426">
        <ele>458.68615722656</ele>
        <time>2012-06-16T11:31:45Z</time>
      </trkpt>
      <trkpt lat="43.74766" lon="7.14263">
        <ele>458.20556640625</ele>
        <time>2012-06-16T11:31:47Z</time>
      </trkpt>
      <trkpt lat="43.74779" lon="7.14286">
        <ele>456.76354980469</ele>
        <time>2012-06-16T11:31:59Z</time>
      </trkpt>
      <trkpt lat="43.7481" lon="7.14303">
        <ele>454.36022949219</ele>
        <time>2012-06-16T11:32:11Z</time>
      </trkpt>
      <trkpt lat="43.74811" lon="7.14304">
        <ele>454.36022949219</ele>
        <time>2012-06-16T11:32:12Z</time>
      </trkpt>
      <trkpt lat="43.74805" lon="7.14317">
        <ele>452.43762207031</ele>
        <time>2012-06-16T11:32:21Z</time>
      </trkpt>
      <trkpt lat="43.74805" lon="7.14317">
        <ele>452.43762207031</ele>
        <time>2012-06-16T11:32:32Z</time>
      </trkpt>
      <trkpt lat="43.74816" lon="7.14322">
        <ele>451.47631835938</ele>
        <time>2012-06-16T11:32:44Z</time>
      </trkpt>
      <trkpt lat="43.74833" lon="7.14354">
        <ele>451.47631835938</ele>
        <time>2012-06-16T11:32:49Z</time>
      </trkpt>
      <trkpt lat="43.74833" lon="7.14354">
        <ele>450.99560546875</ele>
        <time>2012-06-16T11:33:01Z</time>
      </trkpt>
      <trkpt lat="43.74833" lon="7.14354">
        <ele>450.99560546875</ele>
        <time>2012-06-16T11:33:26Z</time>
      </trkpt>
      <trkpt lat="43.74833" lon="7.14354">
        <ele>450.99560546875</ele>
        <time>2012-06-16T11:33:49Z</time>
      </trkpt>
      <trkpt lat="43.74826" lon="7.1437">
        <ele>448.11181640625</ele>
        <time>2012-06-16T11:33:54Z</time>
      </trkpt>
      <trkpt lat="43.74792" lon="7.14387">
        <ele>443.30505371094</ele>
        <time>2012-06-16T11:34:01Z</time>
      </trkpt>
      <trkpt lat="43.74765" lon="7.14385">
        <ele>443.30505371094</ele>
        <time>2012-06-16T11:34:06Z</time>
      </trkpt>
      <trkpt lat="43.74741" lon="7.14409">
        <ele>440.90185546875</ele>
        <time>2012-06-16T11:34:14Z</time>
      </trkpt>
      <trkpt lat="43.74741" lon="7.14418">
        <ele>438.49853515625</ele>
        <time>2012-06-16T11:34:16Z</time>
      </trkpt>
      <trkpt lat="43.74737" lon="7.14433">
        <ele>434.17260742188</ele>
        <time>2012-06-16T11:34:20Z</time>
      </trkpt>
      <trkpt lat="43.74735" lon="7.14433">
        <ele>432.73071289062</ele>
        <time>2012-06-16T11:34:22Z</time>
      </trkpt>
      <trkpt lat="43.74726" lon="7.14421">
        <ele>430.80798339844</ele>
        <time>2012-06-16T11:34:25Z</time>
      </trkpt>
      <trkpt lat="43.74709" lon="7.14414">
        <ele>427.92395019531</ele>
        <time>2012-06-16T11:34:28Z</time>
      </trkpt>
      <trkpt lat="43.74691" lon="7.1441">
        <ele>424.55944824219</ele>
        <time>2012-06-16T11:34:31Z</time>
      </trkpt>
      <trkpt lat="43.74675" lon="7.14398">
        <ele>422.15600585938</ele>
        <time>2012-06-16T11:34:34Z</time>
      </trkpt>
      <trkpt lat="43.74662" lon="7.14391">
        <ele>421.67541503906</ele>
        <time>2012-06-16T11:34:36Z</time>
      </trkpt>
      <trkpt lat="43.74644" lon="7.14366">
        <ele>420.71411132812</ele>
        <time>2012-06-16T11:34:41Z</time>
      </trkpt>
      <trkpt lat="43.74627" lon="7.14349">
        <ele>416.38818359375</ele>
        <time>2012-06-16T11:34:46Z</time>
      </trkpt>
      <trkpt lat="43.7462" lon="7.14344">
        <ele>414.46545410156</ele>
        <time>2012-06-16T11:34:49Z</time>
      </trkpt>
      <trkpt lat="43.74585" lon="7.14367">
        <ele>413.50427246094</ele>
        <time>2012-06-16T11:34:51Z</time>
      </trkpt>
      <trkpt lat="43.74628" lon="7.1435">
        <ele>413.02355957031</ele>
        <time>2012-06-16T11:34:57Z</time>
      </trkpt>
      <trkpt lat="43.74637" lon="7.14359">
        <ele>412.06225585938</ele>
        <time>2012-06-16T11:35:01Z</time>
      </trkpt>
      <trkpt lat="43.74655" lon="7.14354">
        <ele>409.17834472656</ele>
        <time>2012-06-16T11:35:05Z</time>
      </trkpt>
      <trkpt lat="43.7461" lon="7.14418">
        <ele>408.21704101562</ele>
        <time>2012-06-16T11:35:07Z</time>
      </trkpt>
      <trkpt lat="43.7461" lon="7.14418">
        <ele>405.81372070312</ele>
        <time>2012-06-16T11:35:11Z</time>
      </trkpt>
      <trkpt lat="43.74613" lon="7.1444">
        <ele>402.9296875</ele>
        <time>2012-06-16T11:35:19Z</time>
      </trkpt>
      <trkpt lat="43.74614" lon="7.14444">
        <ele>402.9296875</ele>
        <time>2012-06-16T11:35:20Z</time>
      </trkpt>
      <trkpt lat="43.74619" lon="7.14464">
        <ele>399.56506347656</ele>
        <time>2012-06-16T11:35:24Z</time>
      </trkpt>
      <trkpt lat="43.74619" lon="7.14468">
        <ele>399.08435058594</ele>
        <time>2012-06-16T11:35:25Z</time>
      </trkpt>
      <trkpt lat="43.74622" lon="7.14474">
        <ele>398.60375976562</ele>
        <time>2012-06-16T11:35:27Z</time>
      </trkpt>
      <trkpt lat="43.74632" lon="7.14472">
        <ele>395.23913574219</ele>
        <time>2012-06-16T11:35:30Z</time>
      </trkpt>
      <trkpt lat="43.74646" lon="7.14475">
        <ele>393.31652832031</ele>
        <time>2012-06-16T11:35:33Z</time>
      </trkpt>
      <trkpt lat="43.7466" lon="7.14485">
        <ele>392.35534667969</ele>
        <time>2012-06-16T11:35:36Z</time>
      </trkpt>
      <trkpt lat="43.7467" lon="7.14493">
        <ele>391.87451171875</ele>
        <time>2012-06-16T11:35:38Z</time>
      </trkpt>
      <trkpt lat="43.74683" lon="7.14525">
        <ele>388.99060058594</ele>
        <time>2012-06-16T11:35:47Z</time>
      </trkpt>
      <trkpt lat="43.74683" lon="7.14525">
        <ele>388.99060058594</ele>
        <time>2012-06-16T11:35:54Z</time>
      </trkpt>
      <trkpt lat="43.74718" lon="7.1455">
        <ele>384.66479492188</ele>
        <time>2012-06-16T11:36:03Z</time>
      </trkpt>
      <trkpt lat="43.7473" lon="7.14562">
        <ele>382.74206542969</ele>
        <time>2012-06-16T11:36:07Z</time>
      </trkpt>
      <trkpt lat="43.74733" lon="7.1457">
        <ele>381.78063964844</ele>
        <time>2012-06-16T11:36:09Z</time>
      </trkpt>
      <trkpt lat="43.7474" lon="7.14583">
        <ele>380.33874511719</ele>
        <time>2012-06-16T11:36:12Z</time>
      </trkpt>
      <trkpt lat="43.74752" lon="7.14608">
        <ele>376.97424316406</ele>
        <time>2012-06-16T11:36:18Z</time>
      </trkpt>
      <trkpt lat="43.74754" lon="7.14611">
        <ele>376.97424316406</ele>
        <time>2012-06-16T11:36:19Z</time>
      </trkpt>
      <trkpt lat="43.74756" lon="7.14617">
        <ele>376.97424316406</ele>
        <time>2012-06-16T11:36:21Z</time>
      </trkpt>
      <trkpt lat="43.74748" lon="7.14619">
        <ele>373.60949707031</ele>
        <time>2012-06-16T11:36:27Z</time>
      </trkpt>
      <trkpt lat="43.74736" lon="7.1462">
        <ele>371.68688964844</ele>
        <time>2012-06-16T11:36:32Z</time>
      </trkpt>
      <trkpt lat="43.74735" lon="7.14657">
        <ele>368.322265625</ele>
        <time>2012-06-16T11:36:37Z</time>
      </trkpt>
      <trkpt lat="43.74734" lon="7.14658">
        <ele>367.84155273438</ele>
        <time>2012-06-16T11:36:38Z</time>
      </trkpt>
      <trkpt lat="43.74734" lon="7.14658">
        <ele>367.36096191406</ele>
        <time>2012-06-16T11:36:40Z</time>
      </trkpt>
      <trkpt lat="43.74715" lon="7.14643">
        <ele>365.43835449219</ele>
        <time>2012-06-16T11:36:46Z</time>
      </trkpt>
      <trkpt lat="43.74709" lon="7.1465">
        <ele>363.99633789062</ele>
        <time>2012-06-16T11:36:48Z</time>
      </trkpt>
      <trkpt lat="43.74695" lon="7.14665">
        <ele>360.15112304688</ele>
        <time>2012-06-16T11:36:53Z</time>
      </trkpt>
      <trkpt lat="43.74683" lon="7.14675">
        <ele>357.26708984375</ele>
        <time>2012-06-16T11:36:58Z</time>
      </trkpt>
      <trkpt lat="43.74685" lon="7.14673">
        <ele>355.8251953125</ele>
        <time>2012-06-16T11:37:02Z</time>
      </trkpt>
      <trkpt lat="43.74699" lon="7.14661">
        <ele>352.94116210938</ele>
        <time>2012-06-16T11:37:06Z</time>
      </trkpt>
      <trkpt lat="43.74694" lon="7.14696">
        <ele>348.615234375</ele>
        <time>2012-06-16T11:37:12Z</time>
      </trkpt>
      <trkpt lat="43.74681" lon="7.14707">
        <ele>346.21203613281</ele>
        <time>2012-06-16T11:37:14Z</time>
      </trkpt>
      <trkpt lat="43.74648" lon="7.14747">
        <ele>342.36669921875</ele>
        <time>2012-06-16T11:37:21Z</time>
      </trkpt>
      <trkpt lat="43.74637" lon="7.14753">
        <ele>341.88598632812</ele>
        <time>2012-06-16T11:37:23Z</time>
      </trkpt>
      <trkpt lat="43.74618" lon="7.14763">
        <ele>340.92468261719</ele>
        <time>2012-06-16T11:37:28Z</time>
      </trkpt>
      <trkpt lat="43.74614" lon="7.14766">
        <ele>341.88598632812</ele>
        <time>2012-06-16T11:37:31Z</time>
      </trkpt>
      <trkpt lat="43.74586" lon="7.14753">
        <ele>338.521484375</ele>
        <time>2012-06-16T11:37:35Z</time>
      </trkpt>
      <trkpt lat="43.74516" lon="7.1472">
        <ele>336.59887695312</ele>
        <time>2012-06-16T11:37:47Z</time>
      </trkpt>
      <trkpt lat="43.74497" lon="7.14708">
        <ele>335.15673828125</ele>
        <time>2012-06-16T11:37:50Z</time>
      </trkpt>
      <trkpt lat="43.74437" lon="7.1467">
        <ele>332.75354003906</ele>
        <time>2012-06-16T11:37:59Z</time>
      </trkpt>
      <trkpt lat="43.74395" lon="7.14618">
        <ele>329.86950683594</ele>
        <time>2012-06-16T11:38:07Z</time>
      </trkpt>
      <trkpt lat="43.74377" lon="7.14554">
        <ele>330.83093261719</ele>
        <time>2012-06-16T11:38:18Z</time>
      </trkpt>
      <trkpt lat="43.74368" lon="7.14477">
        <ele>330.35021972656</ele>
        <time>2012-06-16T11:38:34Z</time>
      </trkpt>
      <trkpt lat="43.74351" lon="7.14448">
        <ele>329.38891601562</ele>
        <time>2012-06-16T11:38:44Z</time>
      </trkpt>
      <trkpt lat="43.74342" lon="7.1445">
        <ele>328.90832519531</ele>
        <time>2012-06-16T11:38:50Z</time>
      </trkpt>
      <trkpt lat="43.74321" lon="7.14445">
        <ele>327.94677734375</ele>
        <time>2012-06-16T11:38:54Z</time>
      </trkpt>
      <trkpt lat="43.74286" lon="7.14459">
        <ele>325.54357910156</ele>
        <time>2012-06-16T11:39:00Z</time>
      </trkpt>
      <trkpt lat="43.7426" lon="7.14466">
        <ele>324.58227539062</ele>
        <time>2012-06-16T11:39:04Z</time>
      </trkpt>
      <trkpt lat="43.74234" lon="7.14485">
        <ele>323.14038085938</ele>
        <time>2012-06-16T11:39:09Z</time>
      </trkpt>
      <trkpt lat="43.74188" lon="7.14553">
        <ele>325.06298828125</ele>
        <time>2012-06-16T11:39:25Z</time>
      </trkpt>
      <trkpt lat="43.74126" lon="7.14621">
        <ele>327.94677734375</ele>
        <time>2012-06-16T11:39:47Z</time>
      </trkpt>
      <trkpt lat="43.74066" lon="7.14712">
        <ele>328.90832519531</ele>
        <time>2012-06-16T11:40:09Z</time>
      </trkpt>
      <trkpt lat="43.74048" lon="7.14743">
        <ele>328.90832519531</ele>
        <time>2012-06-16T11:40:16Z</time>
      </trkpt>
      <trkpt lat="43.74002" lon="7.14781">
        <ele>329.86950683594</ele>
        <time>2012-06-16T11:40:31Z</time>
      </trkpt>
      <trkpt lat="43.73992" lon="7.14787">
        <ele>330.35021972656</ele>
        <time>2012-06-16T11:40:40Z</time>
      </trkpt>
      <trkpt lat="43.73992" lon="7.14787">
        <ele>333.23413085938</ele>
        <time>2012-06-16T11:40:56Z</time>
      </trkpt>
      <trkpt lat="43.73992" lon="7.14787">
        <ele>336.59887695312</ele>
        <time>2012-06-16T11:41:10Z</time>
      </trkpt>
      <trkpt lat="43.73992" lon="7.14787">
        <ele>337.07946777344</ele>
        <time>2012-06-16T11:41:29Z</time>
      </trkpt>
      <trkpt lat="43.73992" lon="7.14787">
        <ele>337.07946777344</ele>
        <time>2012-06-16T11:41:45Z</time>
      </trkpt>
      <trkpt lat="43.73992" lon="7.14787">
        <ele>337.07946777344</ele>
        <time>2012-06-16T11:41:49Z</time>
      </trkpt>
      <trkpt lat="43.73992" lon="7.14787">
        <ele>337.07946777344</ele>
        <time>2012-06-16T11:42:11Z</time>
      </trkpt>
      <trkpt lat="43.73992" lon="7.14787">
        <ele>337.07946777344</ele>
        <time>2012-06-16T11:42:24Z</time>
      </trkpt>
      <trkpt lat="43.73992" lon="7.14787">
        <ele>337.07946777344</ele>
        <time>2012-06-16T11:42:41Z</time>
      </trkpt>
      <trkpt lat="43.73992" lon="7.14787">
        <ele>332.75354003906</ele>
        <time>2012-06-16T11:43:09Z</time>
      </trkpt>
    </trkseg>
  </trk>
</gpx>